<?xml version="1.0" encoding="UTF-8" standalone="yes"?>
<gpx version="1.1" creator="MagicMaps Tour Explorer"
     xmlns:xsi="http://www.w3.org/2001/XMLSchema-instance"
     xmlns="http://www.topografix.com/GPX/1/1">
  <trk>
    <name>3e étape Ifenblick-Konstanz 109km</name>
    <trkseg>
      <trkpt lat="47.438279366" lon="10.014058227">
        <ele>1026.7</ele>
      </trkpt>
      <trkpt lat="47.438895682" lon="10.014981596">
        <ele>1021.6</ele>
      </trkpt>
      <trkpt lat="47.439267311" lon="10.014627999">
        <ele>1028.5</ele>
      </trkpt>
      <trkpt lat="47.439765838" lon="10.014501185">
        <ele>1036.4</ele>
      </trkpt>
      <trkpt lat="47.440221200" lon="10.014829537">
        <ele>1040.6</ele>
      </trkpt>
      <trkpt lat="47.440536092" lon="10.014826250">
        <ele>1043.5</ele>
      </trkpt>
      <trkpt lat="47.440686022" lon="10.014123917">
        <ele>1045.0</ele>
        <time>2010-06-06T00:00:00</time>
        <extensions><speed>8.36</speed></extensions>
      </trkpt>
      <trkpt lat="47.440730000" lon="10.014150000">
        <ele>1045.0</ele>
        <time>2010-06-06T00:00:00</time>
        <extensions><speed>4.32</speed></extensions>
      </trkpt>
      <trkpt lat="47.440950000" lon="10.013400000">
        <ele>1047.0</ele>
        <time>2010-06-06T00:00:14</time>
        <extensions><speed>4.32</speed></extensions>
      </trkpt>
      <trkpt lat="47.441120000" lon="10.013120000">
        <ele>1049.0</ele>
        <time>2010-06-06T00:00:21</time>
        <extensions><speed>4.32</speed></extensions>
      </trkpt>
      <trkpt lat="47.442110000" lon="10.011820000">
        <ele>1056.0</ele>
        <time>2010-06-06T00:00:55</time>
        <extensions><speed>8.32</speed></extensions>
      </trkpt>
      <trkpt lat="47.442690000" lon="10.010300000">
        <ele>1046.0</ele>
        <time>2010-06-06T00:01:11</time>
        <extensions><speed>8.32</speed></extensions>
      </trkpt>
      <trkpt lat="47.443260000" lon="10.009060000">
        <ele>1039.0</ele>
        <time>2010-06-06T00:01:24</time>
        <extensions><speed>8.32</speed></extensions>
      </trkpt>
      <trkpt lat="47.443620000" lon="10.008470000">
        <ele>1034.0</ele>
        <time>2010-06-06T00:01:32</time>
        <extensions><speed>8.32</speed></extensions>
      </trkpt>
      <trkpt lat="47.443900000" lon="10.008240000">
        <ele>1032.0</ele>
        <time>2010-06-06T00:01:36</time>
        <extensions><speed>8.31</speed></extensions>
      </trkpt>
      <trkpt lat="47.444360000" lon="10.007990000">
        <ele>1028.0</ele>
        <time>2010-06-06T00:01:42</time>
        <extensions><speed>8.31</speed></extensions>
      </trkpt>
      <trkpt lat="47.444570000" lon="10.007910000">
        <ele>1026.0</ele>
        <time>2010-06-06T00:01:45</time>
        <extensions><speed>8.32</speed></extensions>
      </trkpt>
      <trkpt lat="47.444920000" lon="10.007870000">
        <ele>1024.0</ele>
        <time>2010-06-06T00:01:50</time>
        <extensions><speed>8.32</speed></extensions>
      </trkpt>
      <trkpt lat="47.445450000" lon="10.007660000">
        <ele>1014.0</ele>
        <time>2010-06-06T00:01:57</time>
        <extensions><speed>8.32</speed></extensions>
      </trkpt>
      <trkpt lat="47.445640000" lon="10.007540000">
        <ele>1010.0</ele>
        <time>2010-06-06T00:02:00</time>
        <extensions><speed>8.32</speed></extensions>
      </trkpt>
      <trkpt lat="47.445740000" lon="10.007420000">
        <ele>1008.0</ele>
        <time>2010-06-06T00:02:02</time>
        <extensions><speed>8.32</speed></extensions>
      </trkpt>
      <trkpt lat="47.446270000" lon="10.004900000">
        <ele>978.0</ele>
        <time>2010-06-06T00:02:26</time>
        <extensions><speed>4.05</speed></extensions>
      </trkpt>
      <trkpt lat="47.446440000" lon="10.004330000">
        <ele>980.0</ele>
        <time>2010-06-06T00:02:37</time>
        <extensions><speed>4.05</speed></extensions>
      </trkpt>
      <trkpt lat="47.446670000" lon="10.003750000">
        <ele>983.0</ele>
        <time>2010-06-06T00:02:50</time>
        <extensions><speed>4.05</speed></extensions>
      </trkpt>
      <trkpt lat="47.446880000" lon="10.003310000">
        <ele>985.0</ele>
        <time>2010-06-06T00:03:00</time>
        <extensions><speed>4.05</speed></extensions>
      </trkpt>
      <trkpt lat="47.447090000" lon="10.002980000">
        <ele>987.0</ele>
        <time>2010-06-06T00:03:08</time>
        <extensions><speed>4.05</speed></extensions>
      </trkpt>
      <trkpt lat="47.447350000" lon="10.002680000">
        <ele>989.0</ele>
        <time>2010-06-06T00:03:17</time>
        <extensions><speed>8.32</speed></extensions>
      </trkpt>
      <trkpt lat="47.447830000" lon="10.002240000">
        <ele>982.0</ele>
        <time>2010-06-06T00:03:25</time>
        <extensions><speed>8.32</speed></extensions>
      </trkpt>
      <trkpt lat="47.447960000" lon="10.002050000">
        <ele>979.0</ele>
        <time>2010-06-06T00:03:27</time>
        <extensions><speed>8.32</speed></extensions>
      </trkpt>
      <trkpt lat="47.449070000" lon="10.001220000">
        <ele>965.0</ele>
        <time>2010-06-06T00:03:44</time>
        <extensions><speed>8.32</speed></extensions>
      </trkpt>
      <trkpt lat="47.449650000" lon="10.000540000">
        <ele>955.0</ele>
        <time>2010-06-06T00:03:54</time>
        <extensions><speed>8.32</speed></extensions>
      </trkpt>
      <trkpt lat="47.449970000" lon="10.000370000">
        <ele>951.0</ele>
        <time>2010-06-06T00:03:58</time>
        <extensions><speed>8.31</speed></extensions>
      </trkpt>
      <trkpt lat="47.450290000" lon="10.000290000">
        <ele>947.0</ele>
        <time>2010-06-06T00:04:02</time>
        <extensions><speed>8.32</speed></extensions>
      </trkpt>
      <trkpt lat="47.450620000" lon="10.000300000">
        <ele>943.0</ele>
        <time>2010-06-06T00:04:07</time>
        <extensions><speed>8.31</speed></extensions>
      </trkpt>
      <trkpt lat="47.450940000" lon="10.000160000">
        <ele>939.0</ele>
        <time>2010-06-06T00:04:11</time>
        <extensions><speed>8.32</speed></extensions>
      </trkpt>
      <trkpt lat="47.452710000" lon="9.998910000">
        <ele>932.0</ele>
        <time>2010-06-06T00:04:37</time>
        <extensions><speed>3.15</speed></extensions>
      </trkpt>
      <trkpt lat="47.453350000" lon="9.998320000">
        <ele>938.0</ele>
        <time>2010-06-06T00:05:04</time>
        <extensions><speed>3.15</speed></extensions>
      </trkpt>
      <trkpt lat="47.453620000" lon="9.998220000">
        <ele>941.0</ele>
        <time>2010-06-06T00:05:14</time>
        <extensions><speed>3.15</speed></extensions>
      </trkpt>
      <trkpt lat="47.454090000" lon="9.998140000">
        <ele>945.0</ele>
        <time>2010-06-06T00:05:31</time>
        <extensions><speed>3.15</speed></extensions>
      </trkpt>
      <trkpt lat="47.454510000" lon="9.997850000">
        <ele>950.0</ele>
        <time>2010-06-06T00:05:47</time>
        <extensions><speed>8.32</speed></extensions>
      </trkpt>
      <trkpt lat="47.454730000" lon="9.997810000">
        <ele>945.0</ele>
        <time>2010-06-06T00:05:50</time>
        <extensions><speed>8.31</speed></extensions>
      </trkpt>
      <trkpt lat="47.455010000" lon="9.998030000">
        <ele>939.0</ele>
        <time>2010-06-06T00:05:54</time>
        <extensions><speed>8.32</speed></extensions>
      </trkpt>
      <trkpt lat="47.455440000" lon="9.997220000">
        <ele>926.0</ele>
        <time>2010-06-06T00:06:03</time>
        <extensions><speed>8.32</speed></extensions>
      </trkpt>
      <trkpt lat="47.456270000" lon="9.995610000">
        <ele>900.0</ele>
        <time>2010-06-06T00:06:22</time>
        <extensions><speed>8.32</speed></extensions>
      </trkpt>
      <trkpt lat="47.456360000" lon="9.995220000">
        <ele>897.0</ele>
        <time>2010-06-06T00:06:25</time>
        <extensions><speed>8.32</speed></extensions>
      </trkpt>
      <trkpt lat="47.456410000" lon="9.994780000">
        <ele>895.0</ele>
        <time>2010-06-06T00:06:30</time>
        <extensions><speed>8.33</speed></extensions>
      </trkpt>
      <trkpt lat="47.456410000" lon="9.994360000">
        <ele>892.0</ele>
        <time>2010-06-06T00:06:33</time>
        <extensions><speed>8.32</speed></extensions>
      </trkpt>
      <trkpt lat="47.456320000" lon="9.993370000">
        <ele>887.0</ele>
        <time>2010-06-06T00:06:42</time>
        <extensions><speed>8.32</speed></extensions>
      </trkpt>
      <trkpt lat="47.456370000" lon="9.991700000">
        <ele>878.0</ele>
        <time>2010-06-06T00:06:57</time>
        <extensions><speed>7.64</speed></extensions>
      </trkpt>
      <trkpt lat="47.456240000" lon="9.989930000">
        <ele>878.0</ele>
        <time>2010-06-06T00:07:15</time>
        <extensions><speed>7.64</speed></extensions>
      </trkpt>
      <trkpt lat="47.456240000" lon="9.988720000">
        <ele>879.0</ele>
        <time>2010-06-06T00:07:27</time>
        <extensions><speed>8.32</speed></extensions>
      </trkpt>
      <trkpt lat="47.456050000" lon="9.986750000">
        <ele>869.0</ele>
        <time>2010-06-06T00:07:45</time>
        <extensions><speed>8.32</speed></extensions>
      </trkpt>
      <trkpt lat="47.456170000" lon="9.983220000">
        <ele>854.0</ele>
        <time>2010-06-06T00:08:17</time>
        <extensions><speed>8.32</speed></extensions>
      </trkpt>
      <trkpt lat="47.456250000" lon="9.982410000">
        <ele>847.0</ele>
        <time>2010-06-06T00:08:24</time>
        <extensions><speed>8.31</speed></extensions>
      </trkpt>
      <trkpt lat="47.456290000" lon="9.981920000">
        <ele>843.0</ele>
        <time>2010-06-06T00:08:29</time>
        <extensions><speed>8.32</speed></extensions>
      </trkpt>
      <trkpt lat="47.456800000" lon="9.978980000">
        <ele>820.0</ele>
        <time>2010-06-06T00:08:56</time>
        <extensions><speed>8.32</speed></extensions>
      </trkpt>
      <trkpt lat="47.456860000" lon="9.978010000">
        <ele>815.0</ele>
        <time>2010-06-06T00:09:05</time>
        <extensions><speed>8.32</speed></extensions>
      </trkpt>
      <trkpt lat="47.456860000" lon="9.975460000">
        <ele>805.0</ele>
        <time>2010-06-06T00:09:28</time>
        <extensions><speed>8.32</speed></extensions>
      </trkpt>
      <trkpt lat="47.456850000" lon="9.974590000">
        <ele>803.0</ele>
        <time>2010-06-06T00:09:36</time>
        <extensions><speed>8.31</speed></extensions>
      </trkpt>
      <trkpt lat="47.456930000" lon="9.973820000">
        <ele>802.0</ele>
        <time>2010-06-06T00:09:43</time>
        <extensions><speed>8.32</speed></extensions>
      </trkpt>
      <trkpt lat="47.457190000" lon="9.972050000">
        <ele>799.0</ele>
        <time>2010-06-06T00:09:59</time>
        <extensions><speed>8.32</speed></extensions>
      </trkpt>
      <trkpt lat="47.457250000" lon="9.971160000">
        <ele>796.0</ele>
        <time>2010-06-06T00:10:07</time>
        <extensions><speed>8.32</speed></extensions>
      </trkpt>
      <trkpt lat="47.457260000" lon="9.969390000">
        <ele>793.0</ele>
        <time>2010-06-06T00:10:23</time>
        <extensions><speed>8.32</speed></extensions>
      </trkpt>
      <trkpt lat="47.457210000" lon="9.968680000">
        <ele>793.0</ele>
        <time>2010-06-06T00:10:30</time>
        <extensions><speed>8.32</speed></extensions>
      </trkpt>
      <trkpt lat="47.457140000" lon="9.968000000">
        <ele>793.0</ele>
        <time>2010-06-06T00:10:36</time>
        <extensions><speed>8.32</speed></extensions>
      </trkpt>
      <trkpt lat="47.456950000" lon="9.966880000">
        <ele>793.0</ele>
        <time>2010-06-06T00:10:46</time>
        <extensions><speed>8.32</speed></extensions>
      </trkpt>
      <trkpt lat="47.456830000" lon="9.965890000">
        <ele>793.0</ele>
        <time>2010-06-06T00:10:55</time>
        <extensions><speed>8.32</speed></extensions>
      </trkpt>
      <trkpt lat="47.456630000" lon="9.964900000">
        <ele>791.0</ele>
        <time>2010-06-06T00:11:05</time>
        <extensions><speed>8.32</speed></extensions>
      </trkpt>
      <trkpt lat="47.456570000" lon="9.964040000">
        <ele>790.0</ele>
        <time>2010-06-06T00:11:12</time>
        <extensions><speed>8.32</speed></extensions>
      </trkpt>
      <trkpt lat="47.456670000" lon="9.963520000">
        <ele>789.0</ele>
        <time>2010-06-06T00:11:17</time>
        <extensions><speed>8.30</speed></extensions>
      </trkpt>
      <trkpt lat="47.456720000" lon="9.963300000">
        <ele>789.0</ele>
        <time>2010-06-06T00:11:19</time>
        <extensions><speed>6.99</speed></extensions>
      </trkpt>
      <trkpt lat="47.457170000" lon="9.962100000">
        <ele>789.0</ele>
        <time>2010-06-06T00:11:34</time>
        <extensions><speed>6.99</speed></extensions>
      </trkpt>
      <trkpt lat="47.457520000" lon="9.960770000">
        <ele>791.0</ele>
        <time>2010-06-06T00:11:50</time>
        <extensions><speed>7.60</speed></extensions>
      </trkpt>
      <trkpt lat="47.457610000" lon="9.960300000">
        <ele>791.0</ele>
        <time>2010-06-06T00:11:54</time>
        <extensions><speed>7.59</speed></extensions>
      </trkpt>
      <trkpt lat="47.457680000" lon="9.959490000">
        <ele>791.0</ele>
        <time>2010-06-06T00:12:02</time>
        <extensions><speed>7.59</speed></extensions>
      </trkpt>
      <trkpt lat="47.457590000" lon="9.958390000">
        <ele>791.0</ele>
        <time>2010-06-06T00:12:13</time>
        <extensions><speed>7.60</speed></extensions>
      </trkpt>
      <trkpt lat="47.457610000" lon="9.958030000">
        <ele>792.0</ele>
        <time>2010-06-06T00:12:17</time>
        <extensions><speed>8.32</speed></extensions>
      </trkpt>
      <trkpt lat="47.458020000" lon="9.956230000">
        <ele>789.0</ele>
        <time>2010-06-06T00:12:34</time>
        <extensions><speed>8.32</speed></extensions>
      </trkpt>
      <trkpt lat="47.458470000" lon="9.954030000">
        <ele>787.0</ele>
        <time>2010-06-06T00:12:55</time>
        <extensions><speed>5.26</speed></extensions>
      </trkpt>
      <trkpt lat="47.458660000" lon="9.953650000">
        <ele>788.0</ele>
        <time>2010-06-06T00:13:02</time>
        <extensions><speed>5.26</speed></extensions>
      </trkpt>
      <trkpt lat="47.458610000" lon="9.953420000">
        <ele>788.0</ele>
        <time>2010-06-06T00:13:05</time>
        <extensions><speed>5.26</speed></extensions>
      </trkpt>
      <trkpt lat="47.458610000" lon="9.952360000">
        <ele>790.0</ele>
        <time>2010-06-06T00:13:20</time>
        <extensions><speed>5.27</speed></extensions>
      </trkpt>
      <trkpt lat="47.458540000" lon="9.951980000">
        <ele>791.0</ele>
        <time>2010-06-06T00:13:26</time>
        <extensions><speed>5.26</speed></extensions>
      </trkpt>
      <trkpt lat="47.458400000" lon="9.951440000">
        <ele>793.0</ele>
        <time>2010-06-06T00:13:34</time>
        <extensions><speed>8.32</speed></extensions>
      </trkpt>
      <trkpt lat="47.457700000" lon="9.949340000">
        <ele>788.0</ele>
        <time>2010-06-06T00:13:55</time>
        <extensions><speed>8.32</speed></extensions>
      </trkpt>
      <trkpt lat="47.457420000" lon="9.948280000">
        <ele>786.0</ele>
        <time>2010-06-06T00:14:06</time>
        <extensions><speed>8.32</speed></extensions>
      </trkpt>
      <trkpt lat="47.457380000" lon="9.947360000">
        <ele>785.0</ele>
        <time>2010-06-06T00:14:14</time>
        <extensions><speed>8.32</speed></extensions>
      </trkpt>
      <trkpt lat="47.457470000" lon="9.946230000">
        <ele>784.0</ele>
        <time>2010-06-06T00:14:24</time>
        <extensions><speed>8.32</speed></extensions>
      </trkpt>
      <trkpt lat="47.457420000" lon="9.945080000">
        <ele>784.0</ele>
        <time>2010-06-06T00:14:35</time>
        <extensions><speed>8.32</speed></extensions>
      </trkpt>
      <trkpt lat="47.457230000" lon="9.944030000">
        <ele>782.0</ele>
        <time>2010-06-06T00:14:44</time>
        <extensions><speed>8.32</speed></extensions>
      </trkpt>
      <trkpt lat="47.457020000" lon="9.943210000">
        <ele>782.0</ele>
        <time>2010-06-06T00:14:52</time>
        <extensions><speed>8.32</speed></extensions>
      </trkpt>
      <trkpt lat="47.456940000" lon="9.942580000">
        <ele>781.0</ele>
        <time>2010-06-06T00:14:58</time>
        <extensions><speed>8.32</speed></extensions>
      </trkpt>
      <trkpt lat="47.456690000" lon="9.941260000">
        <ele>780.0</ele>
        <time>2010-06-06T00:15:10</time>
        <extensions><speed>8.33</speed></extensions>
      </trkpt>
      <trkpt lat="47.456700000" lon="9.940960000">
        <ele>778.0</ele>
        <time>2010-06-06T00:15:13</time>
        <extensions><speed>8.32</speed></extensions>
      </trkpt>
      <trkpt lat="47.456800000" lon="9.940670000">
        <ele>777.0</ele>
        <time>2010-06-06T00:15:16</time>
        <extensions><speed>8.33</speed></extensions>
      </trkpt>
      <trkpt lat="47.457040000" lon="9.940180000">
        <ele>774.0</ele>
        <time>2010-06-06T00:15:22</time>
        <extensions><speed>8.30</speed></extensions>
      </trkpt>
      <trkpt lat="47.457070000" lon="9.939950000">
        <ele>773.0</ele>
        <time>2010-06-06T00:15:24</time>
        <extensions><speed>8.32</speed></extensions>
      </trkpt>
      <trkpt lat="47.456910000" lon="9.938270000">
        <ele>766.0</ele>
        <time>2010-06-06T00:15:39</time>
        <extensions><speed>8.33</speed></extensions>
      </trkpt>
      <trkpt lat="47.456840000" lon="9.937910000">
        <ele>765.0</ele>
        <time>2010-06-06T00:15:42</time>
        <extensions><speed>8.31</speed></extensions>
      </trkpt>
      <trkpt lat="47.456620000" lon="9.937330000">
        <ele>764.0</ele>
        <time>2010-06-06T00:15:48</time>
        <extensions><speed>8.32</speed></extensions>
      </trkpt>
      <trkpt lat="47.456350000" lon="9.936900000">
        <ele>763.0</ele>
        <time>2010-06-06T00:15:54</time>
        <extensions><speed>8.32</speed></extensions>
      </trkpt>
      <trkpt lat="47.455980000" lon="9.936570000">
        <ele>762.0</ele>
        <time>2010-06-06T00:15:59</time>
        <extensions><speed>8.32</speed></extensions>
      </trkpt>
      <trkpt lat="47.455360000" lon="9.936150000">
        <ele>761.0</ele>
        <time>2010-06-06T00:16:09</time>
        <extensions><speed>8.31</speed></extensions>
      </trkpt>
      <trkpt lat="47.455180000" lon="9.935950000">
        <ele>759.0</ele>
        <time>2010-06-06T00:16:12</time>
        <extensions><speed>8.32</speed></extensions>
      </trkpt>
      <trkpt lat="47.455070000" lon="9.935760000">
        <ele>758.0</ele>
        <time>2010-06-06T00:16:14</time>
        <extensions><speed>8.31</speed></extensions>
      </trkpt>
      <trkpt lat="47.454990000" lon="9.935520000">
        <ele>757.0</ele>
        <time>2010-06-06T00:16:16</time>
        <extensions><speed>8.33</speed></extensions>
      </trkpt>
      <trkpt lat="47.454900000" lon="9.935190000">
        <ele>756.0</ele>
        <time>2010-06-06T00:16:19</time>
        <extensions><speed>8.32</speed></extensions>
      </trkpt>
      <trkpt lat="47.455040000" lon="9.933190000">
        <ele>748.0</ele>
        <time>2010-06-06T00:16:38</time>
        <extensions><speed>8.31</speed></extensions>
      </trkpt>
      <trkpt lat="47.455040000" lon="9.932370000">
        <ele>745.0</ele>
        <time>2010-06-06T00:16:45</time>
        <extensions><speed>8.32</speed></extensions>
      </trkpt>
      <trkpt lat="47.454880000" lon="9.931790000">
        <ele>743.0</ele>
        <time>2010-06-06T00:16:51</time>
        <extensions><speed>8.33</speed></extensions>
      </trkpt>
      <trkpt lat="47.454760000" lon="9.931510000">
        <ele>742.0</ele>
        <time>2010-06-06T00:16:54</time>
        <extensions><speed>8.32</speed></extensions>
      </trkpt>
      <trkpt lat="47.454390000" lon="9.930980000">
        <ele>740.0</ele>
        <time>2010-06-06T00:17:01</time>
        <extensions><speed>8.32</speed></extensions>
      </trkpt>
      <trkpt lat="47.453330000" lon="9.929740000">
        <ele>735.0</ele>
        <time>2010-06-06T00:17:19</time>
        <extensions><speed>8.32</speed></extensions>
      </trkpt>
      <trkpt lat="47.451780000" lon="9.928820000">
        <ele>721.0</ele>
        <time>2010-06-06T00:17:41</time>
        <extensions><speed>8.32</speed></extensions>
      </trkpt>
      <trkpt lat="47.451520000" lon="9.928530000">
        <ele>719.0</ele>
        <time>2010-06-06T00:17:45</time>
        <extensions><speed>8.31</speed></extensions>
      </trkpt>
      <trkpt lat="47.451260000" lon="9.928030000">
        <ele>716.0</ele>
        <time>2010-06-06T00:17:51</time>
        <extensions><speed>8.31</speed></extensions>
      </trkpt>
      <trkpt lat="47.451060000" lon="9.927150000">
        <ele>712.0</ele>
        <time>2010-06-06T00:17:59</time>
        <extensions><speed>8.32</speed></extensions>
      </trkpt>
      <trkpt lat="47.450990000" lon="9.925980000">
        <ele>707.0</ele>
        <time>2010-06-06T00:18:10</time>
        <extensions><speed>8.32</speed></extensions>
      </trkpt>
      <trkpt lat="47.450910000" lon="9.925360000">
        <ele>704.0</ele>
        <time>2010-06-06T00:18:16</time>
        <extensions><speed>8.32</speed></extensions>
      </trkpt>
      <trkpt lat="47.450480000" lon="9.924340000">
        <ele>700.0</ele>
        <time>2010-06-06T00:18:27</time>
        <extensions><speed>8.32</speed></extensions>
      </trkpt>
      <trkpt lat="47.450410000" lon="9.923970000">
        <ele>698.0</ele>
        <time>2010-06-06T00:18:30</time>
        <extensions><speed>8.32</speed></extensions>
      </trkpt>
      <trkpt lat="47.450450000" lon="9.923520000">
        <ele>697.0</ele>
        <time>2010-06-06T00:18:34</time>
        <extensions><speed>8.32</speed></extensions>
      </trkpt>
      <trkpt lat="47.450660000" lon="9.922770000">
        <ele>695.0</ele>
        <time>2010-06-06T00:18:41</time>
        <extensions><speed>8.32</speed></extensions>
      </trkpt>
      <trkpt lat="47.450710000" lon="9.922470000">
        <ele>695.0</ele>
        <time>2010-06-06T00:18:44</time>
        <extensions><speed>8.32</speed></extensions>
      </trkpt>
      <trkpt lat="47.450590000" lon="9.921010000">
        <ele>692.0</ele>
        <time>2010-06-06T00:18:58</time>
        <extensions><speed>8.31</speed></extensions>
      </trkpt>
      <trkpt lat="47.450460000" lon="9.920540000">
        <ele>692.0</ele>
        <time>2010-06-06T00:19:02</time>
        <extensions><speed>8.31</speed></extensions>
      </trkpt>
      <trkpt lat="47.450130000" lon="9.919950000">
        <ele>688.0</ele>
        <time>2010-06-06T00:19:09</time>
        <extensions><speed>8.31</speed></extensions>
      </trkpt>
      <trkpt lat="47.449870000" lon="9.919370000">
        <ele>685.0</ele>
        <time>2010-06-06T00:19:15</time>
        <extensions><speed>8.32</speed></extensions>
      </trkpt>
      <trkpt lat="47.449620000" lon="9.918280000">
        <ele>681.0</ele>
        <time>2010-06-06T00:19:26</time>
        <extensions><speed>8.32</speed></extensions>
      </trkpt>
      <trkpt lat="47.449450000" lon="9.917310000">
        <ele>677.0</ele>
        <time>2010-06-06T00:19:35</time>
        <extensions><speed>8.32</speed></extensions>
      </trkpt>
      <trkpt lat="47.449120000" lon="9.916460000">
        <ele>675.0</ele>
        <time>2010-06-06T00:19:44</time>
        <extensions><speed>8.32</speed></extensions>
      </trkpt>
      <trkpt lat="47.448850000" lon="9.915580000">
        <ele>673.0</ele>
        <time>2010-06-06T00:19:52</time>
        <extensions><speed>8.32</speed></extensions>
      </trkpt>
      <trkpt lat="47.448610000" lon="9.914640000">
        <ele>671.0</ele>
        <time>2010-06-06T00:20:01</time>
        <extensions><speed>8.31</speed></extensions>
      </trkpt>
      <trkpt lat="47.448550000" lon="9.914130000">
        <ele>670.0</ele>
        <time>2010-06-06T00:20:06</time>
        <extensions><speed>8.31</speed></extensions>
      </trkpt>
      <trkpt lat="47.448450000" lon="9.913740000">
        <ele>669.0</ele>
        <time>2010-06-06T00:20:10</time>
        <extensions><speed>8.32</speed></extensions>
      </trkpt>
      <trkpt lat="47.448240000" lon="9.913150000">
        <ele>669.0</ele>
        <time>2010-06-06T00:20:16</time>
        <extensions><speed>8.31</speed></extensions>
      </trkpt>
      <trkpt lat="47.447960000" lon="9.912610000">
        <ele>668.0</ele>
        <time>2010-06-06T00:20:22</time>
        <extensions><speed>8.31</speed></extensions>
      </trkpt>
      <trkpt lat="47.447830000" lon="9.912230000">
        <ele>668.0</ele>
        <time>2010-06-06T00:20:26</time>
        <extensions><speed>8.32</speed></extensions>
      </trkpt>
      <trkpt lat="47.447760000" lon="9.911860000">
        <ele>666.0</ele>
        <time>2010-06-06T00:20:29</time>
        <extensions><speed>8.33</speed></extensions>
      </trkpt>
      <trkpt lat="47.447740000" lon="9.911410000">
        <ele>665.0</ele>
        <time>2010-06-06T00:20:33</time>
        <extensions><speed>8.32</speed></extensions>
      </trkpt>
      <trkpt lat="47.447890000" lon="9.910090000">
        <ele>661.0</ele>
        <time>2010-06-06T00:20:46</time>
        <extensions><speed>8.32</speed></extensions>
      </trkpt>
      <trkpt lat="47.448410000" lon="9.906960000">
        <ele>651.0</ele>
        <time>2010-06-06T00:21:15</time>
        <extensions><speed>8.32</speed></extensions>
      </trkpt>
      <trkpt lat="47.448500000" lon="9.903600000">
        <ele>637.0</ele>
        <time>2010-06-06T00:21:45</time>
        <extensions><speed>8.32</speed></extensions>
      </trkpt>
      <trkpt lat="47.448440000" lon="9.900920000">
        <ele>625.0</ele>
        <time>2010-06-06T00:22:09</time>
        <extensions><speed>8.32</speed></extensions>
      </trkpt>
      <trkpt lat="47.448670000" lon="9.899480000">
        <ele>617.0</ele>
        <time>2010-06-06T00:22:23</time>
        <extensions><speed>8.32</speed></extensions>
      </trkpt>
      <trkpt lat="47.448720000" lon="9.898630000">
        <ele>612.0</ele>
        <time>2010-06-06T00:22:30</time>
        <extensions><speed>8.32</speed></extensions>
      </trkpt>
      <trkpt lat="47.448800000" lon="9.898080000">
        <ele>610.0</ele>
        <time>2010-06-06T00:22:35</time>
        <extensions><speed>8.32</speed></extensions>
      </trkpt>
      <trkpt lat="47.449100000" lon="9.897470000">
        <ele>606.0</ele>
        <time>2010-06-06T00:22:42</time>
        <extensions><speed>8.32</speed></extensions>
      </trkpt>
      <trkpt lat="47.449500000" lon="9.897260000">
        <ele>603.0</ele>
        <time>2010-06-06T00:22:48</time>
        <extensions><speed>8.32</speed></extensions>
      </trkpt>
      <trkpt lat="47.450200000" lon="9.897060000">
        <ele>598.0</ele>
        <time>2010-06-06T00:22:57</time>
        <extensions><speed>8.32</speed></extensions>
      </trkpt>
      <trkpt lat="47.450420000" lon="9.896880000">
        <ele>597.0</ele>
        <time>2010-06-06T00:23:01</time>
        <extensions><speed>6.59</speed></extensions>
      </trkpt>
      <trkpt lat="47.450740000" lon="9.896400000">
        <ele>597.0</ele>
        <time>2010-06-06T00:23:08</time>
        <extensions><speed>6.59</speed></extensions>
      </trkpt>
      <trkpt lat="47.451810000" lon="9.893400000">
        <ele>601.0</ele>
        <time>2010-06-06T00:23:47</time>
        <extensions><speed>8.32</speed></extensions>
      </trkpt>
      <trkpt lat="47.452150000" lon="9.892270000">
        <ele>596.0</ele>
        <time>2010-06-06T00:23:58</time>
        <extensions><speed>8.32</speed></extensions>
      </trkpt>
      <trkpt lat="47.452260000" lon="9.891750000">
        <ele>594.0</ele>
        <time>2010-06-06T00:24:03</time>
        <extensions><speed>8.31</speed></extensions>
      </trkpt>
      <trkpt lat="47.452360000" lon="9.890640000">
        <ele>590.0</ele>
        <time>2010-06-06T00:24:13</time>
        <extensions><speed>8.32</speed></extensions>
      </trkpt>
      <trkpt lat="47.452260000" lon="9.887400000">
        <ele>513.0</ele>
        <time>2010-06-06T00:24:43</time>
        <extensions><speed>1.14</speed></extensions>
      </trkpt>
      <trkpt lat="47.452150000" lon="9.885160000">
        <ele>566.0</ele>
        <time>2010-06-06T00:27:10</time>
        <extensions><speed>1.14</speed></extensions>
      </trkpt>
      <trkpt lat="47.452100000" lon="9.884660000">
        <ele>578.0</ele>
        <time>2010-06-06T00:27:43</time>
        <extensions><speed>2.74</speed></extensions>
      </trkpt>
      <trkpt lat="47.451890000" lon="9.883470000">
        <ele>587.0</ele>
        <time>2010-06-06T00:28:17</time>
        <extensions><speed>2.74</speed></extensions>
      </trkpt>
      <trkpt lat="47.451850000" lon="9.882870000">
        <ele>592.0</ele>
        <time>2010-06-06T00:28:34</time>
        <extensions><speed>2.73</speed></extensions>
      </trkpt>
      <trkpt lat="47.451870000" lon="9.882610000">
        <ele>594.0</ele>
        <time>2010-06-06T00:28:41</time>
        <extensions><speed>2.74</speed></extensions>
      </trkpt>
      <trkpt lat="47.451990000" lon="9.882140000">
        <ele>597.0</ele>
        <time>2010-06-06T00:28:55</time>
        <extensions><speed>2.74</speed></extensions>
      </trkpt>
      <trkpt lat="47.452840000" lon="9.880310000">
        <ele>615.0</ele>
        <time>2010-06-06T00:29:56</time>
        <extensions><speed>8.32</speed></extensions>
      </trkpt>
      <trkpt lat="47.453060000" lon="9.879570000">
        <ele>615.0</ele>
        <time>2010-06-06T00:30:03</time>
        <extensions><speed>8.31</speed></extensions>
      </trkpt>
      <trkpt lat="47.453140000" lon="9.879040000">
        <ele>615.0</ele>
        <time>2010-06-06T00:30:08</time>
        <extensions><speed>8.31</speed></extensions>
      </trkpt>
      <trkpt lat="47.453070000" lon="9.878810000">
        <ele>615.0</ele>
        <time>2010-06-06T00:30:10</time>
        <extensions><speed>8.33</speed></extensions>
      </trkpt>
      <trkpt lat="47.452920000" lon="9.878720000">
        <ele>615.0</ele>
        <time>2010-06-06T00:30:12</time>
        <extensions><speed>8.31</speed></extensions>
      </trkpt>
      <trkpt lat="47.452850000" lon="9.878770000">
        <ele>615.0</ele>
        <time>2010-06-06T00:30:13</time>
        <extensions><speed>8.33</speed></extensions>
      </trkpt>
      <trkpt lat="47.452720000" lon="9.879080000">
        <ele>615.0</ele>
        <time>2010-06-06T00:30:17</time>
        <extensions><speed>8.32</speed></extensions>
      </trkpt>
      <trkpt lat="47.452610000" lon="9.879700000">
        <ele>615.0</ele>
        <time>2010-06-06T00:30:23</time>
        <extensions><speed>5.39</speed></extensions>
      </trkpt>
      <trkpt lat="47.452550000" lon="9.879820000">
        <ele>615.0</ele>
        <time>2010-06-06T00:30:25</time>
        <extensions><speed>5.40</speed></extensions>
      </trkpt>
      <trkpt lat="47.452450000" lon="9.879880000">
        <ele>615.0</ele>
        <time>2010-06-06T00:30:27</time>
        <extensions><speed>5.40</speed></extensions>
      </trkpt>
      <trkpt lat="47.452290000" lon="9.879850000">
        <ele>616.0</ele>
        <time>2010-06-06T00:30:30</time>
        <extensions><speed>5.40</speed></extensions>
      </trkpt>
      <trkpt lat="47.453320000" lon="9.876290000">
        <ele>624.0</ele>
        <time>2010-06-06T00:31:24</time>
        <extensions><speed>3.47</speed></extensions>
      </trkpt>
      <trkpt lat="47.454030000" lon="9.874550000">
        <ele>634.0</ele>
        <time>2010-06-06T00:32:08</time>
        <extensions><speed>3.47</speed></extensions>
      </trkpt>
      <trkpt lat="47.454160000" lon="9.874030000">
        <ele>637.0</ele>
        <time>2010-06-06T00:32:20</time>
        <extensions><speed>3.47</speed></extensions>
      </trkpt>
      <trkpt lat="47.454220000" lon="9.873580000">
        <ele>640.0</ele>
        <time>2010-06-06T00:32:30</time>
        <extensions><speed>2.62</speed></extensions>
      </trkpt>
      <trkpt lat="47.454210000" lon="9.873050000">
        <ele>644.0</ele>
        <time>2010-06-06T00:32:45</time>
        <extensions><speed>2.62</speed></extensions>
      </trkpt>
      <trkpt lat="47.454090000" lon="9.872570000">
        <ele>648.0</ele>
        <time>2010-06-06T00:33:00</time>
        <extensions><speed>2.62</speed></extensions>
      </trkpt>
      <trkpt lat="47.453940000" lon="9.872170000">
        <ele>652.0</ele>
        <time>2010-06-06T00:33:13</time>
        <extensions><speed>2.62</speed></extensions>
      </trkpt>
      <trkpt lat="47.453720000" lon="9.871760000">
        <ele>656.0</ele>
        <time>2010-06-06T00:33:28</time>
        <extensions><speed>2.62</speed></extensions>
      </trkpt>
      <trkpt lat="47.453560000" lon="9.871560000">
        <ele>659.0</ele>
        <time>2010-06-06T00:33:37</time>
        <extensions><speed>2.62</speed></extensions>
      </trkpt>
      <trkpt lat="47.453370000" lon="9.871180000">
        <ele>663.0</ele>
        <time>2010-06-06T00:33:51</time>
        <extensions><speed>8.33</speed></extensions>
      </trkpt>
      <trkpt lat="47.453360000" lon="9.870890000">
        <ele>661.0</ele>
        <time>2010-06-06T00:33:53</time>
        <extensions><speed>8.31</speed></extensions>
      </trkpt>
      <trkpt lat="47.453410000" lon="9.870710000">
        <ele>661.0</ele>
        <time>2010-06-06T00:33:55</time>
        <extensions><speed>8.30</speed></extensions>
      </trkpt>
      <trkpt lat="47.453490000" lon="9.870530000">
        <ele>660.0</ele>
        <time>2010-06-06T00:33:57</time>
        <extensions><speed>8.34</speed></extensions>
      </trkpt>
      <trkpt lat="47.453580000" lon="9.870430000">
        <ele>659.0</ele>
        <time>2010-06-06T00:33:58</time>
        <extensions><speed>8.31</speed></extensions>
      </trkpt>
      <trkpt lat="47.453790000" lon="9.870370000">
        <ele>658.0</ele>
        <time>2010-06-06T00:34:01</time>
        <extensions><speed>8.32</speed></extensions>
      </trkpt>
      <trkpt lat="47.454440000" lon="9.870460000">
        <ele>654.0</ele>
        <time>2010-06-06T00:34:10</time>
        <extensions><speed>8.32</speed></extensions>
      </trkpt>
      <trkpt lat="47.455210000" lon="9.870730000">
        <ele>650.0</ele>
        <time>2010-06-06T00:34:21</time>
        <extensions><speed>2.40</speed></extensions>
      </trkpt>
      <trkpt lat="47.455310000" lon="9.870710000">
        <ele>651.0</ele>
        <time>2010-06-06T00:34:25</time>
        <extensions><speed>2.39</speed></extensions>
      </trkpt>
      <trkpt lat="47.455650000" lon="9.870500000">
        <ele>656.0</ele>
        <time>2010-06-06T00:34:42</time>
        <extensions><speed>2.39</speed></extensions>
      </trkpt>
      <trkpt lat="47.455920000" lon="9.870220000">
        <ele>661.0</ele>
        <time>2010-06-06T00:34:58</time>
        <extensions><speed>2.39</speed></extensions>
      </trkpt>
      <trkpt lat="47.456020000" lon="9.870050000">
        <ele>663.0</ele>
        <time>2010-06-06T00:35:05</time>
        <extensions><speed>2.39</speed></extensions>
      </trkpt>
      <trkpt lat="47.456100000" lon="9.869850000">
        <ele>665.0</ele>
        <time>2010-06-06T00:35:12</time>
        <extensions><speed>2.39</speed></extensions>
      </trkpt>
      <trkpt lat="47.456190000" lon="9.869360000">
        <ele>670.0</ele>
        <time>2010-06-06T00:35:28</time>
        <extensions><speed>2.39</speed></extensions>
      </trkpt>
      <trkpt lat="47.456200000" lon="9.868180000">
        <ele>681.0</ele>
        <time>2010-06-06T00:36:05</time>
        <extensions><speed>8.34</speed></extensions>
      </trkpt>
      <trkpt lat="47.456240000" lon="9.867980000">
        <ele>680.0</ele>
        <time>2010-06-06T00:36:07</time>
        <extensions><speed>8.31</speed></extensions>
      </trkpt>
      <trkpt lat="47.456430000" lon="9.867730000">
        <ele>680.0</ele>
        <time>2010-06-06T00:36:10</time>
        <extensions><speed>8.32</speed></extensions>
      </trkpt>
      <trkpt lat="47.456920000" lon="9.867430000">
        <ele>680.0</ele>
        <time>2010-06-06T00:36:17</time>
        <extensions><speed>8.31</speed></extensions>
      </trkpt>
      <trkpt lat="47.457180000" lon="9.867090000">
        <ele>679.0</ele>
        <time>2010-06-06T00:36:22</time>
        <extensions><speed>8.34</speed></extensions>
      </trkpt>
      <trkpt lat="47.457240000" lon="9.866900000">
        <ele>679.0</ele>
        <time>2010-06-06T00:36:24</time>
        <extensions><speed>8.32</speed></extensions>
      </trkpt>
      <trkpt lat="47.457340000" lon="9.866240000">
        <ele>679.0</ele>
        <time>2010-06-06T00:36:30</time>
        <extensions><speed>4.60</speed></extensions>
      </trkpt>
      <trkpt lat="47.457620000" lon="9.865250000">
        <ele>682.0</ele>
        <time>2010-06-06T00:36:47</time>
        <extensions><speed>4.60</speed></extensions>
      </trkpt>
      <trkpt lat="47.458380000" lon="9.861900000">
        <ele>693.0</ele>
        <time>2010-06-06T00:37:45</time>
        <extensions><speed>8.33</speed></extensions>
      </trkpt>
      <trkpt lat="47.458490000" lon="9.861560000">
        <ele>691.0</ele>
        <time>2010-06-06T00:37:49</time>
        <extensions><speed>8.30</speed></extensions>
      </trkpt>
      <trkpt lat="47.458570000" lon="9.861410000">
        <ele>691.0</ele>
        <time>2010-06-06T00:37:50</time>
        <extensions><speed>8.32</speed></extensions>
      </trkpt>
      <trkpt lat="47.459090000" lon="9.860850000">
        <ele>687.0</ele>
        <time>2010-06-06T00:37:59</time>
        <extensions><speed>8.32</speed></extensions>
      </trkpt>
      <trkpt lat="47.459620000" lon="9.860160000">
        <ele>684.0</ele>
        <time>2010-06-06T00:38:08</time>
        <extensions><speed>8.31</speed></extensions>
      </trkpt>
      <trkpt lat="47.459910000" lon="9.859690000">
        <ele>682.0</ele>
        <time>2010-06-06T00:38:14</time>
        <extensions><speed>4.82</speed></extensions>
      </trkpt>
      <trkpt lat="47.460150000" lon="9.859170000">
        <ele>683.0</ele>
        <time>2010-06-06T00:38:24</time>
        <extensions><speed>4.82</speed></extensions>
      </trkpt>
      <trkpt lat="47.460610000" lon="9.857680000">
        <ele>688.0</ele>
        <time>2010-06-06T00:38:49</time>
        <extensions><speed>4.82</speed></extensions>
      </trkpt>
      <trkpt lat="47.461520000" lon="9.856040000">
        <ele>694.0</ele>
        <time>2010-06-06T00:39:23</time>
        <extensions><speed>4.63</speed></extensions>
      </trkpt>
      <trkpt lat="47.461990000" lon="9.855680000">
        <ele>696.0</ele>
        <time>2010-06-06T00:39:35</time>
        <extensions><speed>4.63</speed></extensions>
      </trkpt>
      <trkpt lat="47.462160000" lon="9.855440000">
        <ele>697.0</ele>
        <time>2010-06-06T00:39:41</time>
        <extensions><speed>4.62</speed></extensions>
      </trkpt>
      <trkpt lat="47.462250000" lon="9.855230000">
        <ele>698.0</ele>
        <time>2010-06-06T00:39:45</time>
        <extensions><speed>4.63</speed></extensions>
      </trkpt>
      <trkpt lat="47.462290000" lon="9.854940000">
        <ele>699.0</ele>
        <time>2010-06-06T00:39:50</time>
        <extensions><speed>4.63</speed></extensions>
      </trkpt>
      <trkpt lat="47.462230000" lon="9.854510000">
        <ele>700.0</ele>
        <time>2010-06-06T00:39:57</time>
        <extensions><speed>4.63</speed></extensions>
      </trkpt>
      <trkpt lat="47.462030000" lon="9.854120000">
        <ele>701.0</ele>
        <time>2010-06-06T00:40:05</time>
        <extensions><speed>4.63</speed></extensions>
      </trkpt>
      <trkpt lat="47.460800000" lon="9.853150000">
        <ele>708.0</ele>
        <time>2010-06-06T00:40:38</time>
        <extensions><speed>5.74</speed></extensions>
      </trkpt>
      <trkpt lat="47.460030000" lon="9.852350000">
        <ele>710.0</ele>
        <time>2010-06-06T00:40:56</time>
        <extensions><speed>5.74</speed></extensions>
      </trkpt>
      <trkpt lat="47.457640000" lon="9.849530000">
        <ele>718.0</ele>
        <time>2010-06-06T00:41:56</time>
        <extensions><speed>8.32</speed></extensions>
      </trkpt>
      <trkpt lat="47.456660000" lon="9.848000000">
        <ele>717.0</ele>
        <time>2010-06-06T00:42:15</time>
        <extensions><speed>8.31</speed></extensions>
      </trkpt>
      <trkpt lat="47.456520000" lon="9.847360000">
        <ele>717.0</ele>
        <time>2010-06-06T00:42:21</time>
        <extensions><speed>6.87</speed></extensions>
      </trkpt>
      <trkpt lat="47.456380000" lon="9.846230000">
        <ele>717.0</ele>
        <time>2010-06-06T00:42:33</time>
        <extensions><speed>6.87</speed></extensions>
      </trkpt>
      <trkpt lat="47.456240000" lon="9.845780000">
        <ele>718.0</ele>
        <time>2010-06-06T00:42:39</time>
        <extensions><speed>6.86</speed></extensions>
      </trkpt>
      <trkpt lat="47.455930000" lon="9.845010000">
        <ele>719.0</ele>
        <time>2010-06-06T00:42:49</time>
        <extensions><speed>6.86</speed></extensions>
      </trkpt>
      <trkpt lat="47.455330000" lon="9.844170000">
        <ele>720.0</ele>
        <time>2010-06-06T00:43:02</time>
        <extensions><speed>8.31</speed></extensions>
      </trkpt>
      <trkpt lat="47.455150000" lon="9.843760000">
        <ele>719.0</ele>
        <time>2010-06-06T00:43:06</time>
        <extensions><speed>8.32</speed></extensions>
      </trkpt>
      <trkpt lat="47.453830000" lon="9.840220000">
        <ele>719.0</ele>
        <time>2010-06-06T00:43:43</time>
        <extensions><speed>6.90</speed></extensions>
      </trkpt>
      <trkpt lat="47.453020000" lon="9.837880000">
        <ele>721.0</ele>
        <time>2010-06-06T00:44:12</time>
        <extensions><speed>6.90</speed></extensions>
      </trkpt>
      <trkpt lat="47.452530000" lon="9.836860000">
        <ele>722.0</ele>
        <time>2010-06-06T00:44:25</time>
        <extensions><speed>8.32</speed></extensions>
      </trkpt>
      <trkpt lat="47.450710000" lon="9.833650000">
        <ele>720.0</ele>
        <time>2010-06-06T00:45:03</time>
        <extensions><speed>8.32</speed></extensions>
      </trkpt>
      <trkpt lat="47.450440000" lon="9.832990000">
        <ele>720.0</ele>
        <time>2010-06-06T00:45:10</time>
        <extensions><speed>8.31</speed></extensions>
      </trkpt>
      <trkpt lat="47.450400000" lon="9.832450000">
        <ele>720.0</ele>
        <time>2010-06-06T00:45:15</time>
        <extensions><speed>8.32</speed></extensions>
      </trkpt>
      <trkpt lat="47.450410000" lon="9.831210000">
        <ele>720.0</ele>
        <time>2010-06-06T00:45:26</time>
        <extensions><speed>8.30</speed></extensions>
      </trkpt>
      <trkpt lat="47.450290000" lon="9.831240000">
        <ele>720.0</ele>
        <time>2010-06-06T00:45:28</time>
        <extensions><speed>8.30</speed></extensions>
      </trkpt>
      <trkpt lat="47.450290000" lon="9.831240000">
        <ele>720.0</ele>
        <time>2010-06-06T00:45:29</time>
        <extensions><speed>8.31</speed></extensions>
      </trkpt>
      <trkpt lat="47.449980000" lon="9.831180000">
        <ele>719.0</ele>
        <time>2010-06-06T00:45:33</time>
        <extensions><speed>8.31</speed></extensions>
      </trkpt>
      <trkpt lat="47.449810000" lon="9.831060000">
        <ele>719.0</ele>
        <time>2010-06-06T00:45:35</time>
        <extensions><speed>8.32</speed></extensions>
      </trkpt>
      <trkpt lat="47.449500000" lon="9.830690000">
        <ele>719.0</ele>
        <time>2010-06-06T00:45:41</time>
        <extensions><speed>8.31</speed></extensions>
      </trkpt>
      <trkpt lat="47.449130000" lon="9.830090000">
        <ele>719.0</ele>
        <time>2010-06-06T00:45:48</time>
        <extensions><speed>8.31</speed></extensions>
      </trkpt>
      <trkpt lat="47.448990000" lon="9.829600000">
        <ele>719.0</ele>
        <time>2010-06-06T00:45:53</time>
        <extensions><speed>8.32</speed></extensions>
      </trkpt>
      <trkpt lat="47.449010000" lon="9.828180000">
        <ele>717.0</ele>
        <time>2010-06-06T00:46:06</time>
        <extensions><speed>8.32</speed></extensions>
      </trkpt>
      <trkpt lat="47.448820000" lon="9.827270000">
        <ele>715.0</ele>
        <time>2010-06-06T00:46:14</time>
        <extensions><speed>8.32</speed></extensions>
      </trkpt>
      <trkpt lat="47.448370000" lon="9.826020000">
        <ele>714.0</ele>
        <time>2010-06-06T00:46:27</time>
        <extensions><speed>8.31</speed></extensions>
      </trkpt>
      <trkpt lat="47.448070000" lon="9.825320000">
        <ele>714.0</ele>
        <time>2010-06-06T00:46:35</time>
        <extensions><speed>8.32</speed></extensions>
      </trkpt>
      <trkpt lat="47.447450000" lon="9.824010000">
        <ele>714.0</ele>
        <time>2010-06-06T00:46:49</time>
        <extensions><speed>8.31</speed></extensions>
      </trkpt>
      <trkpt lat="47.447110000" lon="9.823440000">
        <ele>714.0</ele>
        <time>2010-06-06T00:46:56</time>
        <extensions><speed>6.40</speed></extensions>
      </trkpt>
      <trkpt lat="47.446720000" lon="9.822890000">
        <ele>714.0</ele>
        <time>2010-06-06T00:47:05</time>
        <extensions><speed>6.40</speed></extensions>
      </trkpt>
      <trkpt lat="47.446040000" lon="9.822070000">
        <ele>716.0</ele>
        <time>2010-06-06T00:47:20</time>
        <extensions><speed>6.40</speed></extensions>
      </trkpt>
      <trkpt lat="47.445890000" lon="9.821770000">
        <ele>716.0</ele>
        <time>2010-06-06T00:47:25</time>
        <extensions><speed>6.40</speed></extensions>
      </trkpt>
      <trkpt lat="47.445660000" lon="9.820750000">
        <ele>718.0</ele>
        <time>2010-06-06T00:47:37</time>
        <extensions><speed>6.63</speed></extensions>
      </trkpt>
      <trkpt lat="47.445030000" lon="9.819100000">
        <ele>719.0</ele>
        <time>2010-06-06T00:47:59</time>
        <extensions><speed>6.63</speed></extensions>
      </trkpt>
      <trkpt lat="47.444800000" lon="9.818640000">
        <ele>720.0</ele>
        <time>2010-06-06T00:48:05</time>
        <extensions><speed>6.63</speed></extensions>
      </trkpt>
      <trkpt lat="47.444440000" lon="9.818240000">
        <ele>721.0</ele>
        <time>2010-06-06T00:48:13</time>
        <extensions><speed>8.31</speed></extensions>
      </trkpt>
      <trkpt lat="47.444270000" lon="9.817920000">
        <ele>719.0</ele>
        <time>2010-06-06T00:48:17</time>
        <extensions><speed>8.31</speed></extensions>
      </trkpt>
      <trkpt lat="47.444200000" lon="9.817700000">
        <ele>718.0</ele>
        <time>2010-06-06T00:48:19</time>
        <extensions><speed>8.32</speed></extensions>
      </trkpt>
      <trkpt lat="47.444120000" lon="9.817040000">
        <ele>715.0</ele>
        <time>2010-06-06T00:48:25</time>
        <extensions><speed>8.32</speed></extensions>
      </trkpt>
      <trkpt lat="47.443810000" lon="9.815540000">
        <ele>709.0</ele>
        <time>2010-06-06T00:48:39</time>
        <extensions><speed>6.51</speed></extensions>
      </trkpt>
      <trkpt lat="47.443740000" lon="9.815280000">
        <ele>709.0</ele>
        <time>2010-06-06T00:48:42</time>
        <extensions><speed>6.51</speed></extensions>
      </trkpt>
      <trkpt lat="47.443140000" lon="9.813740000">
        <ele>711.0</ele>
        <time>2010-06-06T00:49:03</time>
        <extensions><speed>6.51</speed></extensions>
      </trkpt>
      <trkpt lat="47.442940000" lon="9.813420000">
        <ele>711.0</ele>
        <time>2010-06-06T00:49:08</time>
        <extensions><speed>6.51</speed></extensions>
      </trkpt>
      <trkpt lat="47.442730000" lon="9.813210000">
        <ele>712.0</ele>
        <time>2010-06-06T00:49:12</time>
        <extensions><speed>8.31</speed></extensions>
      </trkpt>
      <trkpt lat="47.442370000" lon="9.813030000">
        <ele>711.0</ele>
        <time>2010-06-06T00:49:17</time>
        <extensions><speed>8.32</speed></extensions>
      </trkpt>
      <trkpt lat="47.442120000" lon="9.812980000">
        <ele>711.0</ele>
        <time>2010-06-06T00:49:21</time>
        <extensions><speed>8.32</speed></extensions>
      </trkpt>
      <trkpt lat="47.441900000" lon="9.812800000">
        <ele>710.0</ele>
        <time>2010-06-06T00:49:24</time>
        <extensions><speed>8.29</speed></extensions>
      </trkpt>
      <trkpt lat="47.441870000" lon="9.812680000">
        <ele>710.0</ele>
        <time>2010-06-06T00:49:25</time>
        <extensions><speed>8.33</speed></extensions>
      </trkpt>
      <trkpt lat="47.441880000" lon="9.812420000">
        <ele>710.0</ele>
        <time>2010-06-06T00:49:28</time>
        <extensions><speed>8.31</speed></extensions>
      </trkpt>
      <trkpt lat="47.442050000" lon="9.811950000">
        <ele>709.0</ele>
        <time>2010-06-06T00:49:32</time>
        <extensions><speed>8.32</speed></extensions>
      </trkpt>
      <trkpt lat="47.442230000" lon="9.811270000">
        <ele>709.0</ele>
        <time>2010-06-06T00:49:39</time>
        <extensions><speed>8.31</speed></extensions>
      </trkpt>
      <trkpt lat="47.442250000" lon="9.810730000">
        <ele>708.0</ele>
        <time>2010-06-06T00:49:44</time>
        <extensions><speed>8.31</speed></extensions>
      </trkpt>
      <trkpt lat="47.442180000" lon="9.810340000">
        <ele>708.0</ele>
        <time>2010-06-06T00:49:47</time>
        <extensions><speed>8.32</speed></extensions>
      </trkpt>
      <trkpt lat="47.442020000" lon="9.809940000">
        <ele>708.0</ele>
        <time>2010-06-06T00:49:52</time>
        <extensions><speed>8.31</speed></extensions>
      </trkpt>
      <trkpt lat="47.441860000" lon="9.809720000">
        <ele>708.0</ele>
        <time>2010-06-06T00:49:55</time>
        <extensions><speed>8.32</speed></extensions>
      </trkpt>
      <trkpt lat="47.441440000" lon="9.809310000">
        <ele>708.0</ele>
        <time>2010-06-06T00:50:01</time>
        <extensions><speed>8.32</speed></extensions>
      </trkpt>
      <trkpt lat="47.440890000" lon="9.808870000">
        <ele>708.0</ele>
        <time>2010-06-06T00:50:10</time>
        <extensions><speed>8.31</speed></extensions>
      </trkpt>
      <trkpt lat="47.440630000" lon="9.808410000">
        <ele>706.0</ele>
        <time>2010-06-06T00:50:15</time>
        <extensions><speed>8.32</speed></extensions>
      </trkpt>
      <trkpt lat="47.439820000" lon="9.805770000">
        <ele>698.0</ele>
        <time>2010-06-06T00:50:41</time>
        <extensions><speed>8.32</speed></extensions>
      </trkpt>
      <trkpt lat="47.439520000" lon="9.803980000">
        <ele>698.0</ele>
        <time>2010-06-06T00:50:58</time>
        <extensions><speed>8.32</speed></extensions>
      </trkpt>
      <trkpt lat="47.439260000" lon="9.802790000">
        <ele>698.0</ele>
        <time>2010-06-06T00:51:09</time>
        <extensions><speed>8.32</speed></extensions>
      </trkpt>
      <trkpt lat="47.438960000" lon="9.801860000">
        <ele>695.0</ele>
        <time>2010-06-06T00:51:19</time>
        <extensions><speed>8.33</speed></extensions>
      </trkpt>
      <trkpt lat="47.438970000" lon="9.801630000">
        <ele>695.0</ele>
        <time>2010-06-06T00:51:21</time>
        <extensions><speed>8.31</speed></extensions>
      </trkpt>
      <trkpt lat="47.439140000" lon="9.801030000">
        <ele>694.0</ele>
        <time>2010-06-06T00:51:27</time>
        <extensions><speed>8.31</speed></extensions>
      </trkpt>
      <trkpt lat="47.439240000" lon="9.800520000">
        <ele>693.0</ele>
        <time>2010-06-06T00:51:31</time>
        <extensions><speed>8.32</speed></extensions>
      </trkpt>
      <trkpt lat="47.439160000" lon="9.799470000">
        <ele>691.0</ele>
        <time>2010-06-06T00:51:41</time>
        <extensions><speed>6.57</speed></extensions>
      </trkpt>
      <trkpt lat="47.439100000" lon="9.799180000">
        <ele>691.0</ele>
        <time>2010-06-06T00:51:44</time>
        <extensions><speed>6.57</speed></extensions>
      </trkpt>
      <trkpt lat="47.438990000" lon="9.798930000">
        <ele>691.0</ele>
        <time>2010-06-06T00:51:48</time>
        <extensions><speed>6.57</speed></extensions>
      </trkpt>
      <trkpt lat="47.438610000" lon="9.798520000">
        <ele>692.0</ele>
        <time>2010-06-06T00:51:56</time>
        <extensions><speed>6.56</speed></extensions>
      </trkpt>
      <trkpt lat="47.438430000" lon="9.798340000">
        <ele>692.0</ele>
        <time>2010-06-06T00:51:59</time>
        <extensions><speed>6.56</speed></extensions>
      </trkpt>
      <trkpt lat="47.438300000" lon="9.797880000">
        <ele>693.0</ele>
        <time>2010-06-06T00:52:05</time>
        <extensions><speed>6.57</speed></extensions>
      </trkpt>
      <trkpt lat="47.438610000" lon="9.797140000">
        <ele>694.0</ele>
        <time>2010-06-06T00:52:15</time>
        <extensions><speed>8.32</speed></extensions>
      </trkpt>
      <trkpt lat="47.438660000" lon="9.796690000">
        <ele>693.0</ele>
        <time>2010-06-06T00:52:19</time>
        <extensions><speed>8.31</speed></extensions>
      </trkpt>
      <trkpt lat="47.438580000" lon="9.795880000">
        <ele>692.0</ele>
        <time>2010-06-06T00:52:27</time>
        <extensions><speed>8.32</speed></extensions>
      </trkpt>
      <trkpt lat="47.438330000" lon="9.794420000">
        <ele>690.0</ele>
        <time>2010-06-06T00:52:40</time>
        <extensions><speed>8.31</speed></extensions>
      </trkpt>
      <trkpt lat="47.438270000" lon="9.794220000">
        <ele>689.0</ele>
        <time>2010-06-06T00:52:42</time>
        <extensions><speed>8.31</speed></extensions>
      </trkpt>
      <trkpt lat="47.438000000" lon="9.793800000">
        <ele>688.0</ele>
        <time>2010-06-06T00:52:47</time>
        <extensions><speed>8.33</speed></extensions>
      </trkpt>
      <trkpt lat="47.437910000" lon="9.793510000">
        <ele>688.0</ele>
        <time>2010-06-06T00:52:50</time>
        <extensions><speed>8.33</speed></extensions>
      </trkpt>
      <trkpt lat="47.437860000" lon="9.792960000">
        <ele>687.0</ele>
        <time>2010-06-06T00:52:55</time>
        <extensions><speed>8.32</speed></extensions>
      </trkpt>
      <trkpt lat="47.437970000" lon="9.791650000">
        <ele>685.0</ele>
        <time>2010-06-06T00:53:07</time>
        <extensions><speed>2.20</speed></extensions>
      </trkpt>
      <trkpt lat="47.437920000" lon="9.791170000">
        <ele>690.0</ele>
        <time>2010-06-06T00:53:24</time>
        <extensions><speed>2.20</speed></extensions>
      </trkpt>
      <trkpt lat="47.437770000" lon="9.790360000">
        <ele>698.0</ele>
        <time>2010-06-06T00:53:53</time>
        <extensions><speed>2.20</speed></extensions>
      </trkpt>
      <trkpt lat="47.437700000" lon="9.790180000">
        <ele>701.0</ele>
        <time>2010-06-06T00:54:00</time>
        <extensions><speed>2.20</speed></extensions>
      </trkpt>
      <trkpt lat="47.437500000" lon="9.790020000">
        <ele>704.0</ele>
        <time>2010-06-06T00:54:11</time>
        <extensions><speed>2.20</speed></extensions>
      </trkpt>
      <trkpt lat="47.437260000" lon="9.790040000">
        <ele>708.0</ele>
        <time>2010-06-06T00:54:23</time>
        <extensions><speed>2.20</speed></extensions>
      </trkpt>
      <trkpt lat="47.436970000" lon="9.789920000">
        <ele>713.0</ele>
        <time>2010-06-06T00:54:39</time>
        <extensions><speed>8.31</speed></extensions>
      </trkpt>
      <trkpt lat="47.436660000" lon="9.789900000">
        <ele>709.0</ele>
        <time>2010-06-06T00:54:43</time>
        <extensions><speed>8.30</speed></extensions>
      </trkpt>
      <trkpt lat="47.436540000" lon="9.789780000">
        <ele>707.0</ele>
        <time>2010-06-06T00:54:45</time>
        <extensions><speed>8.31</speed></extensions>
      </trkpt>
      <trkpt lat="47.436500000" lon="9.789670000">
        <ele>706.0</ele>
        <time>2010-06-06T00:54:46</time>
        <extensions><speed>8.29</speed></extensions>
      </trkpt>
      <trkpt lat="47.436500000" lon="9.789510000">
        <ele>705.0</ele>
        <time>2010-06-06T00:54:47</time>
        <extensions><speed>8.32</speed></extensions>
      </trkpt>
      <trkpt lat="47.436580000" lon="9.789250000">
        <ele>703.0</ele>
        <time>2010-06-06T00:54:50</time>
        <extensions><speed>8.32</speed></extensions>
      </trkpt>
      <trkpt lat="47.437010000" lon="9.788790000">
        <ele>697.0</ele>
        <time>2010-06-06T00:54:57</time>
        <extensions><speed>8.32</speed></extensions>
      </trkpt>
      <trkpt lat="47.437170000" lon="9.788540000">
        <ele>694.0</ele>
        <time>2010-06-06T00:55:00</time>
        <extensions><speed>8.32</speed></extensions>
      </trkpt>
      <trkpt lat="47.437420000" lon="9.787710000">
        <ele>688.0</ele>
        <time>2010-06-06T00:55:08</time>
        <extensions><speed>8.32</speed></extensions>
      </trkpt>
      <trkpt lat="47.437710000" lon="9.784940000">
        <ele>682.0</ele>
        <time>2010-06-06T00:55:34</time>
        <extensions><speed>8.32</speed></extensions>
      </trkpt>
      <trkpt lat="47.437840000" lon="9.783710000">
        <ele>674.0</ele>
        <time>2010-06-06T00:55:45</time>
        <extensions><speed>8.31</speed></extensions>
      </trkpt>
      <trkpt lat="47.437910000" lon="9.783330000">
        <ele>672.0</ele>
        <time>2010-06-06T00:55:48</time>
        <extensions><speed>8.32</speed></extensions>
      </trkpt>
      <trkpt lat="47.438080000" lon="9.783050000">
        <ele>670.0</ele>
        <time>2010-06-06T00:55:52</time>
        <extensions><speed>8.35</speed></extensions>
      </trkpt>
      <trkpt lat="47.438170000" lon="9.783000000">
        <ele>669.0</ele>
        <time>2010-06-06T00:55:53</time>
        <extensions><speed>8.32</speed></extensions>
      </trkpt>
      <trkpt lat="47.438610000" lon="9.782970000">
        <ele>666.0</ele>
        <time>2010-06-06T00:55:59</time>
        <extensions><speed>8.32</speed></extensions>
      </trkpt>
      <trkpt lat="47.439900000" lon="9.783120000">
        <ele>659.0</ele>
        <time>2010-06-06T00:56:16</time>
        <extensions><speed>8.30</speed></extensions>
      </trkpt>
      <trkpt lat="47.440030000" lon="9.783140000">
        <ele>658.0</ele>
        <time>2010-06-06T00:56:18</time>
        <extensions><speed>8.33</speed></extensions>
      </trkpt>
      <trkpt lat="47.440230000" lon="9.783050000">
        <ele>657.0</ele>
        <time>2010-06-06T00:56:21</time>
        <extensions><speed>8.31</speed></extensions>
      </trkpt>
      <trkpt lat="47.440420000" lon="9.782800000">
        <ele>656.0</ele>
        <time>2010-06-06T00:56:24</time>
        <extensions><speed>8.31</speed></extensions>
      </trkpt>
      <trkpt lat="47.440540000" lon="9.782450000">
        <ele>655.0</ele>
        <time>2010-06-06T00:56:28</time>
        <extensions><speed>8.31</speed></extensions>
      </trkpt>
      <trkpt lat="47.440630000" lon="9.781740000">
        <ele>655.0</ele>
        <time>2010-06-06T00:56:34</time>
        <extensions><speed>8.33</speed></extensions>
      </trkpt>
      <trkpt lat="47.440640000" lon="9.781410000">
        <ele>655.0</ele>
        <time>2010-06-06T00:56:37</time>
        <extensions><speed>8.32</speed></extensions>
      </trkpt>
      <trkpt lat="47.440560000" lon="9.780450000">
        <ele>654.0</ele>
        <time>2010-06-06T00:56:46</time>
        <extensions><speed>8.32</speed></extensions>
      </trkpt>
      <trkpt lat="47.440640000" lon="9.779480000">
        <ele>654.0</ele>
        <time>2010-06-06T00:56:55</time>
        <extensions><speed>8.33</speed></extensions>
      </trkpt>
      <trkpt lat="47.440770000" lon="9.779210000">
        <ele>652.0</ele>
        <time>2010-06-06T00:56:58</time>
        <extensions><speed>8.31</speed></extensions>
      </trkpt>
      <trkpt lat="47.440890000" lon="9.779120000">
        <ele>652.0</ele>
        <time>2010-06-06T00:57:00</time>
        <extensions><speed>8.31</speed></extensions>
      </trkpt>
      <trkpt lat="47.441090000" lon="9.779140000">
        <ele>651.0</ele>
        <time>2010-06-06T00:57:02</time>
        <extensions><speed>8.32</speed></extensions>
      </trkpt>
      <trkpt lat="47.441310000" lon="9.779320000">
        <ele>649.0</ele>
        <time>2010-06-06T00:57:06</time>
        <extensions><speed>8.29</speed></extensions>
      </trkpt>
      <trkpt lat="47.441410000" lon="9.779320000">
        <ele>649.0</ele>
        <time>2010-06-06T00:57:07</time>
        <extensions><speed>8.31</speed></extensions>
      </trkpt>
      <trkpt lat="47.441480000" lon="9.779250000">
        <ele>648.0</ele>
        <time>2010-06-06T00:57:08</time>
        <extensions><speed>8.32</speed></extensions>
      </trkpt>
      <trkpt lat="47.441600000" lon="9.778980000">
        <ele>647.0</ele>
        <time>2010-06-06T00:57:11</time>
        <extensions><speed>8.32</speed></extensions>
      </trkpt>
      <trkpt lat="47.441760000" lon="9.778340000">
        <ele>645.0</ele>
        <time>2010-06-06T00:57:17</time>
        <extensions><speed>8.31</speed></extensions>
      </trkpt>
      <trkpt lat="47.441940000" lon="9.777970000">
        <ele>644.0</ele>
        <time>2010-06-06T00:57:21</time>
        <extensions><speed>8.32</speed></extensions>
      </trkpt>
      <trkpt lat="47.442050000" lon="9.777550000">
        <ele>640.0</ele>
        <time>2010-06-06T00:57:25</time>
        <extensions><speed>8.32</speed></extensions>
      </trkpt>
      <trkpt lat="47.442380000" lon="9.776980000">
        <ele>635.0</ele>
        <time>2010-06-06T00:57:32</time>
        <extensions><speed>8.31</speed></extensions>
      </trkpt>
      <trkpt lat="47.442450000" lon="9.776560000">
        <ele>632.0</ele>
        <time>2010-06-06T00:57:36</time>
        <extensions><speed>8.33</speed></extensions>
      </trkpt>
      <trkpt lat="47.442430000" lon="9.776100000">
        <ele>629.0</ele>
        <time>2010-06-06T00:57:40</time>
        <extensions><speed>8.33</speed></extensions>
      </trkpt>
      <trkpt lat="47.442280000" lon="9.775640000">
        <ele>625.0</ele>
        <time>2010-06-06T00:57:45</time>
        <extensions><speed>8.30</speed></extensions>
      </trkpt>
      <trkpt lat="47.442260000" lon="9.775430000">
        <ele>624.0</ele>
        <time>2010-06-06T00:57:47</time>
        <extensions><speed>8.32</speed></extensions>
      </trkpt>
      <trkpt lat="47.442340000" lon="9.775030000">
        <ele>623.0</ele>
        <time>2010-06-06T00:57:51</time>
        <extensions><speed>8.31</speed></extensions>
      </trkpt>
      <trkpt lat="47.442310000" lon="9.774520000">
        <ele>622.0</ele>
        <time>2010-06-06T00:57:55</time>
        <extensions><speed>8.31</speed></extensions>
      </trkpt>
      <trkpt lat="47.442170000" lon="9.774060000">
        <ele>621.0</ele>
        <time>2010-06-06T00:58:00</time>
        <extensions><speed>8.32</speed></extensions>
      </trkpt>
      <trkpt lat="47.441920000" lon="9.772910000">
        <ele>620.0</ele>
        <time>2010-06-06T00:58:11</time>
        <extensions><speed>8.32</speed></extensions>
      </trkpt>
      <trkpt lat="47.441030000" lon="9.770590000">
        <ele>616.0</ele>
        <time>2010-06-06T00:58:35</time>
        <extensions><speed>8.32</speed></extensions>
      </trkpt>
      <trkpt lat="47.441030000" lon="9.770590000">
        <ele>616.0</ele>
        <time>2010-06-06T00:58:36</time>
        <extensions><speed>8.32</speed></extensions>
      </trkpt>
      <trkpt lat="47.440890000" lon="9.770170000">
        <ele>611.0</ele>
        <time>2010-06-06T00:58:40</time>
        <extensions><speed>8.32</speed></extensions>
      </trkpt>
      <trkpt lat="47.440310000" lon="9.768900000">
        <ele>595.0</ele>
        <time>2010-06-06T00:58:54</time>
        <extensions><speed>8.32</speed></extensions>
      </trkpt>
      <trkpt lat="47.439700000" lon="9.768000000">
        <ele>582.0</ele>
        <time>2010-06-06T00:59:05</time>
        <extensions><speed>8.32</speed></extensions>
      </trkpt>
      <trkpt lat="47.438990000" lon="9.766820000">
        <ele>572.0</ele>
        <time>2010-06-06T00:59:20</time>
        <extensions><speed>8.32</speed></extensions>
      </trkpt>
      <trkpt lat="47.438850000" lon="9.766650000">
        <ele>570.0</ele>
        <time>2010-06-06T00:59:22</time>
        <extensions><speed>8.32</speed></extensions>
      </trkpt>
      <trkpt lat="47.438450000" lon="9.766400000">
        <ele>566.0</ele>
        <time>2010-06-06T00:59:28</time>
        <extensions><speed>8.32</speed></extensions>
      </trkpt>
      <trkpt lat="47.437460000" lon="9.765960000">
        <ele>557.0</ele>
        <time>2010-06-06T00:59:42</time>
        <extensions><speed>8.32</speed></extensions>
      </trkpt>
      <trkpt lat="47.436960000" lon="9.765620000">
        <ele>555.0</ele>
        <time>2010-06-06T00:59:49</time>
        <extensions><speed>8.31</speed></extensions>
      </trkpt>
      <trkpt lat="47.436780000" lon="9.765380000">
        <ele>554.0</ele>
        <time>2010-06-06T00:59:52</time>
        <extensions><speed>8.32</speed></extensions>
      </trkpt>
      <trkpt lat="47.436740000" lon="9.765280000">
        <ele>554.0</ele>
        <time>2010-06-06T00:59:53</time>
        <extensions><speed>8.33</speed></extensions>
      </trkpt>
      <trkpt lat="47.436760000" lon="9.765130000">
        <ele>553.0</ele>
        <time>2010-06-06T00:59:55</time>
        <extensions><speed>8.31</speed></extensions>
      </trkpt>
      <trkpt lat="47.437160000" lon="9.764870000">
        <ele>552.0</ele>
        <time>2010-06-06T01:00:00</time>
        <extensions><speed>8.32</speed></extensions>
      </trkpt>
      <trkpt lat="47.437840000" lon="9.764650000">
        <ele>550.0</ele>
        <time>2010-06-06T01:00:10</time>
        <extensions><speed>8.31</speed></extensions>
      </trkpt>
      <trkpt lat="47.438040000" lon="9.764500000">
        <ele>548.0</ele>
        <time>2010-06-06T01:00:13</time>
        <extensions><speed>8.30</speed></extensions>
      </trkpt>
      <trkpt lat="47.438140000" lon="9.764330000">
        <ele>547.0</ele>
        <time>2010-06-06T01:00:15</time>
        <extensions><speed>8.33</speed></extensions>
      </trkpt>
      <trkpt lat="47.438160000" lon="9.763980000">
        <ele>545.0</ele>
        <time>2010-06-06T01:00:18</time>
        <extensions><speed>8.30</speed></extensions>
      </trkpt>
      <trkpt lat="47.438140000" lon="9.763780000">
        <ele>544.0</ele>
        <time>2010-06-06T01:00:20</time>
        <extensions><speed>8.31</speed></extensions>
      </trkpt>
      <trkpt lat="47.438010000" lon="9.763430000">
        <ele>542.0</ele>
        <time>2010-06-06T01:00:23</time>
        <extensions><speed>8.31</speed></extensions>
      </trkpt>
      <trkpt lat="47.437730000" lon="9.762930000">
        <ele>539.0</ele>
        <time>2010-06-06T01:00:29</time>
        <extensions><speed>8.32</speed></extensions>
      </trkpt>
      <trkpt lat="47.437470000" lon="9.762570000">
        <ele>537.0</ele>
        <time>2010-06-06T01:00:34</time>
        <extensions><speed>8.32</speed></extensions>
      </trkpt>
      <trkpt lat="47.436550000" lon="9.761410000">
        <ele>524.0</ele>
        <time>2010-06-06T01:00:50</time>
        <extensions><speed>8.31</speed></extensions>
      </trkpt>
      <trkpt lat="47.436310000" lon="9.761220000">
        <ele>521.0</ele>
        <time>2010-06-06T01:00:54</time>
        <extensions><speed>8.32</speed></extensions>
      </trkpt>
      <trkpt lat="47.435480000" lon="9.760840000">
        <ele>512.0</ele>
        <time>2010-06-06T01:01:05</time>
        <extensions><speed>8.33</speed></extensions>
      </trkpt>
      <trkpt lat="47.435320000" lon="9.760700000">
        <ele>510.0</ele>
        <time>2010-06-06T01:01:08</time>
        <extensions><speed>8.32</speed></extensions>
      </trkpt>
      <trkpt lat="47.434860000" lon="9.760040000">
        <ele>505.0</ele>
        <time>2010-06-06T01:01:16</time>
        <extensions><speed>8.32</speed></extensions>
      </trkpt>
      <trkpt lat="47.434500000" lon="9.759760000">
        <ele>501.0</ele>
        <time>2010-06-06T01:01:22</time>
        <extensions><speed>8.32</speed></extensions>
      </trkpt>
      <trkpt lat="47.434270000" lon="9.759260000">
        <ele>498.0</ele>
        <time>2010-06-06T01:01:27</time>
        <extensions><speed>8.32</speed></extensions>
      </trkpt>
      <trkpt lat="47.434190000" lon="9.759160000">
        <ele>497.0</ele>
        <time>2010-06-06T01:01:29</time>
        <extensions><speed>8.32</speed></extensions>
      </trkpt>
      <trkpt lat="47.433910000" lon="9.759080000">
        <ele>495.0</ele>
        <time>2010-06-06T01:01:33</time>
        <extensions><speed>8.32</speed></extensions>
      </trkpt>
      <trkpt lat="47.433600000" lon="9.759080000">
        <ele>494.0</ele>
        <time>2010-06-06T01:01:37</time>
        <extensions><speed>8.31</speed></extensions>
      </trkpt>
      <trkpt lat="47.433420000" lon="9.759090000">
        <ele>493.0</ele>
        <time>2010-06-06T01:01:39</time>
        <extensions><speed>8.31</speed></extensions>
      </trkpt>
      <trkpt lat="47.433270000" lon="9.759200000">
        <ele>493.0</ele>
        <time>2010-06-06T01:01:41</time>
        <extensions><speed>8.32</speed></extensions>
      </trkpt>
      <trkpt lat="47.432990000" lon="9.760000000">
        <ele>492.0</ele>
        <time>2010-06-06T01:01:50</time>
        <extensions><speed>8.30</speed></extensions>
      </trkpt>
      <trkpt lat="47.432950000" lon="9.760230000">
        <ele>491.0</ele>
        <time>2010-06-06T01:01:52</time>
        <extensions><speed>8.32</speed></extensions>
      </trkpt>
      <trkpt lat="47.433050000" lon="9.760810000">
        <ele>491.0</ele>
        <time>2010-06-06T01:01:57</time>
        <extensions><speed>8.31</speed></extensions>
      </trkpt>
      <trkpt lat="47.432980000" lon="9.761290000">
        <ele>488.0</ele>
        <time>2010-06-06T01:02:02</time>
        <extensions><speed>8.32</speed></extensions>
      </trkpt>
      <trkpt lat="47.433020000" lon="9.761770000">
        <ele>485.0</ele>
        <time>2010-06-06T01:02:06</time>
        <extensions><speed>8.34</speed></extensions>
      </trkpt>
      <trkpt lat="47.433000000" lon="9.762020000">
        <ele>483.0</ele>
        <time>2010-06-06T01:02:08</time>
        <extensions><speed>8.31</speed></extensions>
      </trkpt>
      <trkpt lat="47.432900000" lon="9.762260000">
        <ele>482.0</ele>
        <time>2010-06-06T01:02:11</time>
        <extensions><speed>8.31</speed></extensions>
      </trkpt>
      <trkpt lat="47.432720000" lon="9.762250000">
        <ele>480.0</ele>
        <time>2010-06-06T01:02:13</time>
        <extensions><speed>8.31</speed></extensions>
      </trkpt>
      <trkpt lat="47.432600000" lon="9.762090000">
        <ele>479.0</ele>
        <time>2010-06-06T01:02:15</time>
        <extensions><speed>8.32</speed></extensions>
      </trkpt>
      <trkpt lat="47.432510000" lon="9.760700000">
        <ele>471.0</ele>
        <time>2010-06-06T01:02:28</time>
        <extensions><speed>8.33</speed></extensions>
      </trkpt>
      <trkpt lat="47.432440000" lon="9.760340000">
        <ele>467.0</ele>
        <time>2010-06-06T01:02:31</time>
        <extensions><speed>8.32</speed></extensions>
      </trkpt>
      <trkpt lat="47.432270000" lon="9.759820000">
        <ele>463.0</ele>
        <time>2010-06-06T01:02:36</time>
        <extensions><speed>8.32</speed></extensions>
      </trkpt>
      <trkpt lat="47.432040000" lon="9.758510000">
        <ele>452.0</ele>
        <time>2010-06-06T01:02:49</time>
        <extensions><speed>8.31</speed></extensions>
      </trkpt>
      <trkpt lat="47.431960000" lon="9.758280000">
        <ele>450.0</ele>
        <time>2010-06-06T01:02:51</time>
        <extensions><speed>8.31</speed></extensions>
      </trkpt>
      <trkpt lat="47.431670000" lon="9.757800000">
        <ele>445.0</ele>
        <time>2010-06-06T01:02:57</time>
        <extensions><speed>8.32</speed></extensions>
      </trkpt>
      <trkpt lat="47.431580000" lon="9.757570000">
        <ele>444.0</ele>
        <time>2010-06-06T01:02:59</time>
        <extensions><speed>8.32</speed></extensions>
      </trkpt>
      <trkpt lat="47.431450000" lon="9.756660000">
        <ele>442.0</ele>
        <time>2010-06-06T01:03:08</time>
        <extensions><speed>8.31</speed></extensions>
      </trkpt>
      <trkpt lat="47.431220000" lon="9.756320000">
        <ele>441.0</ele>
        <time>2010-06-06T01:03:12</time>
        <extensions><speed>8.31</speed></extensions>
      </trkpt>
      <trkpt lat="47.430970000" lon="9.755830000">
        <ele>440.0</ele>
        <time>2010-06-06T01:03:18</time>
        <extensions><speed>8.32</speed></extensions>
      </trkpt>
      <trkpt lat="47.430480000" lon="9.755700000">
        <ele>439.0</ele>
        <time>2010-06-06T01:03:24</time>
        <extensions><speed>8.32</speed></extensions>
      </trkpt>
      <trkpt lat="47.429920000" lon="9.755370000">
        <ele>438.0</ele>
        <time>2010-06-06T01:03:32</time>
        <extensions><speed>8.31</speed></extensions>
      </trkpt>
      <trkpt lat="47.429150000" lon="9.755270000">
        <ele>438.0</ele>
        <time>2010-06-06T01:03:43</time>
        <extensions><speed>8.32</speed></extensions>
      </trkpt>
      <trkpt lat="47.428050000" lon="9.755270000">
        <ele>438.0</ele>
        <time>2010-06-06T01:03:57</time>
        <extensions><speed>8.32</speed></extensions>
      </trkpt>
      <trkpt lat="47.427300000" lon="9.755140000">
        <ele>435.0</ele>
        <time>2010-06-06T01:04:07</time>
        <extensions><speed>8.32</speed></extensions>
      </trkpt>
      <trkpt lat="47.426680000" lon="9.754680000">
        <ele>432.0</ele>
        <time>2010-06-06T01:04:17</time>
        <extensions><speed>8.32</speed></extensions>
      </trkpt>
      <trkpt lat="47.426030000" lon="9.754000000">
        <ele>430.0</ele>
        <time>2010-06-06T01:04:27</time>
        <extensions><speed>8.32</speed></extensions>
      </trkpt>
      <trkpt lat="47.425340000" lon="9.753100000">
        <ele>429.0</ele>
        <time>2010-06-06T01:04:40</time>
        <extensions><speed>8.32</speed></extensions>
      </trkpt>
      <trkpt lat="47.424640000" lon="9.752150000">
        <ele>428.0</ele>
        <time>2010-06-06T01:04:52</time>
        <extensions><speed>8.32</speed></extensions>
      </trkpt>
      <trkpt lat="47.424220000" lon="9.751670000">
        <ele>427.0</ele>
        <time>2010-06-06T01:04:59</time>
        <extensions><speed>8.32</speed></extensions>
      </trkpt>
      <trkpt lat="47.423910000" lon="9.751020000">
        <ele>427.0</ele>
        <time>2010-06-06T01:05:07</time>
        <extensions><speed>8.32</speed></extensions>
      </trkpt>
      <trkpt lat="47.423700000" lon="9.750150000">
        <ele>427.0</ele>
        <time>2010-06-06T01:05:15</time>
        <extensions><speed>8.32</speed></extensions>
      </trkpt>
      <trkpt lat="47.423530000" lon="9.749710000">
        <ele>427.0</ele>
        <time>2010-06-06T01:05:19</time>
        <extensions><speed>8.32</speed></extensions>
      </trkpt>
      <trkpt lat="47.423260000" lon="9.749420000">
        <ele>426.0</ele>
        <time>2010-06-06T01:05:24</time>
        <extensions><speed>8.32</speed></extensions>
      </trkpt>
      <trkpt lat="47.422530000" lon="9.748920000">
        <ele>426.0</ele>
        <time>2010-06-06T01:05:35</time>
        <extensions><speed>8.32</speed></extensions>
      </trkpt>
      <trkpt lat="47.422000000" lon="9.748400000">
        <ele>426.0</ele>
        <time>2010-06-06T01:05:43</time>
        <extensions><speed>8.31</speed></extensions>
      </trkpt>
      <trkpt lat="47.421430000" lon="9.747630000">
        <ele>426.0</ele>
        <time>2010-06-06T01:05:54</time>
        <extensions><speed>8.31</speed></extensions>
      </trkpt>
      <trkpt lat="47.421130000" lon="9.747080000">
        <ele>425.0</ele>
        <time>2010-06-06T01:06:00</time>
        <extensions><speed>8.32</speed></extensions>
      </trkpt>
      <trkpt lat="47.421820000" lon="9.746190000">
        <ele>424.0</ele>
        <time>2010-06-06T01:06:12</time>
        <extensions><speed>8.31</speed></extensions>
      </trkpt>
      <trkpt lat="47.421940000" lon="9.745870000">
        <ele>423.0</ele>
        <time>2010-06-06T01:06:15</time>
        <extensions><speed>8.32</speed></extensions>
      </trkpt>
      <trkpt lat="47.422010000" lon="9.745090000">
        <ele>423.0</ele>
        <time>2010-06-06T01:06:23</time>
        <extensions><speed>6.21</speed></extensions>
      </trkpt>
      <trkpt lat="47.422000000" lon="9.744880000">
        <ele>423.0</ele>
        <time>2010-06-06T01:06:25</time>
        <extensions><speed>6.21</speed></extensions>
      </trkpt>
      <trkpt lat="47.421620000" lon="9.742590000">
        <ele>426.0</ele>
        <time>2010-06-06T01:06:54</time>
        <extensions><speed>6.21</speed></extensions>
      </trkpt>
      <trkpt lat="47.421240000" lon="9.742630000">
        <ele>427.0</ele>
        <time>2010-06-06T01:07:00</time>
        <extensions><speed>7.48</speed></extensions>
      </trkpt>
      <trkpt lat="47.418080000" lon="9.743440000">
        <ele>429.0</ele>
        <time>2010-06-06T01:07:48</time>
        <extensions><speed>5.75</speed></extensions>
      </trkpt>
      <trkpt lat="47.416480000" lon="9.743740000">
        <ele>433.0</ele>
        <time>2010-06-06T01:08:19</time>
        <extensions><speed>5.75</speed></extensions>
      </trkpt>
      <trkpt lat="47.414500000" lon="9.744200000">
        <ele>438.0</ele>
        <time>2010-06-06T01:08:58</time>
        <extensions><speed>5.48</speed></extensions>
      </trkpt>
      <trkpt lat="47.414120000" lon="9.744210000">
        <ele>439.0</ele>
        <time>2010-06-06T01:09:06</time>
        <extensions><speed>5.48</speed></extensions>
      </trkpt>
      <trkpt lat="47.413750000" lon="9.744140000">
        <ele>440.0</ele>
        <time>2010-06-06T01:09:13</time>
        <extensions><speed>5.48</speed></extensions>
      </trkpt>
      <trkpt lat="47.413280000" lon="9.743740000">
        <ele>441.0</ele>
        <time>2010-06-06T01:09:24</time>
        <extensions><speed>5.47</speed></extensions>
      </trkpt>
      <trkpt lat="47.413221155" lon="9.743767246">
        <ele>437.0</ele>
      </trkpt>
      <trkpt lat="47.406891853" lon="9.743112969">
        <ele>439.3</ele>
      </trkpt>
      <trkpt lat="47.405318998" lon="9.741540938">
        <ele>435.8</ele>
      </trkpt>
      <trkpt lat="47.404429559" lon="9.739991608">
        <ele>435.6</ele>
      </trkpt>
      <trkpt lat="47.405318998" lon="9.741540938">
        <ele>435.8</ele>
      </trkpt>
      <trkpt lat="47.406701478" lon="9.736379710">
        <ele>435.0</ele>
      </trkpt>
      <trkpt lat="47.407146092" lon="9.731563174">
        <ele>432.0</ele>
      </trkpt>
      <trkpt lat="47.408727481" lon="9.729001402">
        <ele>426.9</ele>
      </trkpt>
      <trkpt lat="47.410293044" lon="9.723245994">
        <ele>424.0</ele>
      </trkpt>
      <trkpt lat="47.410323808" lon="9.718357137">
        <ele>422.0</ele>
      </trkpt>
      <trkpt lat="47.412410140" lon="9.713879254">
        <ele>420.7</ele>
      </trkpt>
      <trkpt lat="47.412538869" lon="9.712964612">
        <ele>419.3</ele>
      </trkpt>
      <trkpt lat="47.412447615" lon="9.713716366">
        <ele>420.4</ele>
      </trkpt>
      <trkpt lat="47.412654910" lon="9.713722084">
        <ele>420.2</ele>
      </trkpt>
      <trkpt lat="47.413200313" lon="9.710723447">
        <ele>416.8</ele>
      </trkpt>
      <trkpt lat="47.413576219" lon="9.710287873">
        <ele>416.4</ele>
      </trkpt>
      <trkpt lat="47.413469115" lon="9.709529497">
        <ele>416.0</ele>
      </trkpt>
      <trkpt lat="47.413637301" lon="9.707523465">
        <ele>417.5</ele>
      </trkpt>
      <trkpt lat="47.414676614" lon="9.706835540">
        <ele>414.0</ele>
      </trkpt>
      <trkpt lat="47.413886106" lon="9.706092799">
        <ele>414.8</ele>
      </trkpt>
      <trkpt lat="47.413779393" lon="9.705732217">
        <ele>414.2</ele>
      </trkpt>
      <trkpt lat="47.413945093" lon="9.704256851">
        <ele>413.9</ele>
      </trkpt>
      <trkpt lat="47.414263971" lon="9.704145223">
        <ele>413.2</ele>
      </trkpt>
      <trkpt lat="47.414121041" lon="9.704557426">
        <ele>413.7</ele>
      </trkpt>
      <trkpt lat="47.413541509" lon="9.704483080">
        <ele>414.0</ele>
      </trkpt>
      <trkpt lat="47.413407913" lon="9.704125207">
        <ele>414.0</ele>
      </trkpt>
      <trkpt lat="47.413702757" lon="9.703883387">
        <ele>414.0</ele>
      </trkpt>
      <trkpt lat="47.414222588" lon="9.700144534">
        <ele>412.0</ele>
      </trkpt>
      <trkpt lat="47.413953311" lon="9.699190313">
        <ele>412.0</ele>
      </trkpt>
      <trkpt lat="47.414400791" lon="9.698163954">
        <ele>411.0</ele>
      </trkpt>
      <trkpt lat="47.415453136" lon="9.689225917">
        <ele>408.4</ele>
      </trkpt>
      <trkpt lat="47.414784381" lon="9.688975079">
        <ele>408.1</ele>
      </trkpt>
      <trkpt lat="47.415857448" lon="9.682819611">
        <ele>407.0</ele>
      </trkpt>
      <trkpt lat="47.416788635" lon="9.669569902">
        <ele>404.0</ele>
      </trkpt>
      <trkpt lat="47.416683321" lon="9.665575504">
        <ele>404.0</ele>
      </trkpt>
      <trkpt lat="47.415096668" lon="9.665524028">
        <ele>403.0</ele>
      </trkpt>
      <trkpt lat="47.414327863" lon="9.664673613">
        <ele>402.7</ele>
      </trkpt>
      <trkpt lat="47.409969135" lon="9.662701762">
        <ele>401.9</ele>
      </trkpt>
      <trkpt lat="47.410301459" lon="9.660758625">
        <ele>401.9</ele>
      </trkpt>
      <trkpt lat="47.408849485" lon="9.657617357">
        <ele>402.0</ele>
      </trkpt>
      <trkpt lat="47.408586253" lon="9.643721303">
        <ele>404.0</ele>
      </trkpt>
      <trkpt lat="47.409168153" lon="9.637509528">
        <ele>396.5</ele>
      </trkpt>
      <trkpt lat="47.408483433" lon="9.627528325">
        <ele>402.4</ele>
      </trkpt>
      <trkpt lat="47.409412769" lon="9.626425780">
        <ele>399.9</ele>
      </trkpt>
      <trkpt lat="47.409221463" lon="9.625994457">
        <ele>401.9</ele>
      </trkpt>
      <trkpt lat="47.409480563" lon="9.625570222">
        <ele>403.2</ele>
      </trkpt>
      <trkpt lat="47.409764905" lon="9.626257257">
        <ele>398.0</ele>
      </trkpt>
      <trkpt lat="47.410244246" lon="9.625730987">
        <ele>398.4</ele>
      </trkpt>
      <trkpt lat="47.411043066" lon="9.625490358">
        <ele>400.0</ele>
      </trkpt>
      <trkpt lat="47.414880054" lon="9.624966192">
        <ele>409.8</ele>
      </trkpt>
      <trkpt lat="47.419948864" lon="9.621159651">
        <ele>416.0</ele>
      </trkpt>
      <trkpt lat="47.421112479" lon="9.620828575">
        <ele>416.4</ele>
      </trkpt>
      <trkpt lat="47.421777430" lon="9.620230116">
        <ele>414.1</ele>
      </trkpt>
      <trkpt lat="47.423067848" lon="9.617047660">
        <ele>410.4</ele>
      </trkpt>
      <trkpt lat="47.425575256" lon="9.613714006">
        <ele>416.7</ele>
      </trkpt>
      <trkpt lat="47.425096173" lon="9.609135137">
        <ele>449.5</ele>
      </trkpt>
      <trkpt lat="47.425371035" lon="9.606519236">
        <ele>480.9</ele>
      </trkpt>
      <trkpt lat="47.425060964" lon="9.602810549">
        <ele>491.5</ele>
      </trkpt>
      <trkpt lat="47.427191678" lon="9.604661368">
        <ele>511.2</ele>
      </trkpt>
      <trkpt lat="47.428078367" lon="9.605711258">
        <ele>522.3</ele>
      </trkpt>
      <trkpt lat="47.427408390" lon="9.604294276">
        <ele>525.1</ele>
      </trkpt>
      <trkpt lat="47.425462986" lon="9.597555508">
        <ele>573.9</ele>
      </trkpt>
      <trkpt lat="47.424175956" lon="9.594254055">
        <ele>576.6</ele>
      </trkpt>
      <trkpt lat="47.424597304" lon="9.592787648">
        <ele>596.3</ele>
      </trkpt>
      <trkpt lat="47.423892358" lon="9.589956741">
        <ele>606.8</ele>
      </trkpt>
      <trkpt lat="47.424859697" lon="9.589000040">
        <ele>656.9</ele>
      </trkpt>
      <trkpt lat="47.422909615" lon="9.586910766">
        <ele>647.0</ele>
      </trkpt>
      <trkpt lat="47.421536337" lon="9.588101497">
        <ele>610.5</ele>
      </trkpt>
      <trkpt lat="47.421225694" lon="9.587289615">
        <ele>628.3</ele>
      </trkpt>
      <trkpt lat="47.420747828" lon="9.580459174">
        <ele>700.5</ele>
      </trkpt>
      <trkpt lat="47.421406393" lon="9.578292957">
        <ele>707.9</ele>
      </trkpt>
      <trkpt lat="47.421111815" lon="9.576063266">
        <ele>710.3</ele>
      </trkpt>
      <trkpt lat="47.420352247" lon="9.576863377">
        <ele>709.2</ele>
      </trkpt>
      <trkpt lat="47.419735193" lon="9.576154253">
        <ele>703.7</ele>
      </trkpt>
      <trkpt lat="47.419946963" lon="9.569782133">
        <ele>700.0</ele>
      </trkpt>
      <trkpt lat="47.419023686" lon="9.567333752">
        <ele>745.1</ele>
      </trkpt>
      <trkpt lat="47.419719968" lon="9.566585852">
        <ele>752.7</ele>
      </trkpt>
      <trkpt lat="47.420572895" lon="9.566899823">
        <ele>746.6</ele>
      </trkpt>
      <trkpt lat="47.420927628" lon="9.564279599">
        <ele>793.4</ele>
      </trkpt>
      <trkpt lat="47.421761603" lon="9.562963229">
        <ele>799.4</ele>
      </trkpt>
      <trkpt lat="47.422184500" lon="9.561099067">
        <ele>799.0</ele>
      </trkpt>
      <trkpt lat="47.423213263" lon="9.560407586">
        <ele>799.1</ele>
      </trkpt>
      <trkpt lat="47.424769435" lon="9.558542099">
        <ele>807.1</ele>
      </trkpt>
      <trkpt lat="47.425145698" lon="9.558850920">
        <ele>812.7</ele>
      </trkpt>
      <trkpt lat="47.425236667" lon="9.560482099">
        <ele>813.9</ele>
      </trkpt>
      <trkpt lat="47.425615455" lon="9.560274062">
        <ele>820.9</ele>
      </trkpt>
      <trkpt lat="47.426076223" lon="9.558012524">
        <ele>845.8</ele>
      </trkpt>
      <trkpt lat="47.425540405" lon="9.555369337">
        <ele>875.1</ele>
      </trkpt>
      <trkpt lat="47.424483985" lon="9.554350941">
        <ele>875.3</ele>
      </trkpt>
      <trkpt lat="47.422222413" lon="9.553306690">
        <ele>875.8</ele>
      </trkpt>
      <trkpt lat="47.422191043" lon="9.552352144">
        <ele>882.6</ele>
      </trkpt>
      <trkpt lat="47.422778847" lon="9.549827231">
        <ele>894.4</ele>
      </trkpt>
      <trkpt lat="47.422512860" lon="9.550897959">
        <ele>890.7</ele>
      </trkpt>
      <trkpt lat="47.421911911" lon="9.550546820">
        <ele>892.2</ele>
      </trkpt>
      <trkpt lat="47.422271838" lon="9.548642138">
        <ele>897.0</ele>
      </trkpt>
      <trkpt lat="47.421740750" lon="9.546847473">
        <ele>899.7</ele>
      </trkpt>
      <trkpt lat="47.422034376" lon="9.545631243">
        <ele>900.0</ele>
      </trkpt>
      <trkpt lat="47.420729791" lon="9.545710517">
        <ele>900.0</ele>
      </trkpt>
      <trkpt lat="47.420612951" lon="9.543800932">
        <ele>900.0</ele>
      </trkpt>
      <trkpt lat="47.418930103" lon="9.542087303">
        <ele>902.9</ele>
      </trkpt>
      <trkpt lat="47.418782717" lon="9.540919599">
        <ele>902.9</ele>
      </trkpt>
      <trkpt lat="47.417797119" lon="9.540114378">
        <ele>918.3</ele>
      </trkpt>
      <trkpt lat="47.417551027" lon="9.538892689">
        <ele>937.3</ele>
      </trkpt>
      <trkpt lat="47.417037240" lon="9.539125972">
        <ele>949.8</ele>
      </trkpt>
      <trkpt lat="47.416171798" lon="9.541449393">
        <ele>982.3</ele>
      </trkpt>
      <trkpt lat="47.415803987" lon="9.539338643">
        <ele>986.2</ele>
      </trkpt>
      <trkpt lat="47.414854353" lon="9.538533866">
        <ele>998.4</ele>
      </trkpt>
      <trkpt lat="47.412788137" lon="9.537996001">
        <ele>1010.1</ele>
      </trkpt>
      <trkpt lat="47.412342598" lon="9.537103673">
        <ele>1023.3</ele>
      </trkpt>
      <trkpt lat="47.411800526" lon="9.537614921">
        <ele>1033.9</ele>
      </trkpt>
      <trkpt lat="47.412148185" lon="9.538280988">
        <ele>1021.3</ele>
      </trkpt>
      <trkpt lat="47.412169608" lon="9.541368574">
        <ele>1005.8</ele>
      </trkpt>
      <trkpt lat="47.411021930" lon="9.540601537">
        <ele>1023.3</ele>
      </trkpt>
      <trkpt lat="47.409881489" lon="9.534455137">
        <ele>1087.6</ele>
      </trkpt>
      <trkpt lat="47.410014385" lon="9.532959239">
        <ele>1093.5</ele>
      </trkpt>
      <trkpt lat="47.407532309" lon="9.527038217">
        <ele>1055.4</ele>
      </trkpt>
      <trkpt lat="47.406735304" lon="9.526275057">
        <ele>1030.7</ele>
      </trkpt>
      <trkpt lat="47.405727536" lon="9.524396915">
        <ele>1049.5</ele>
      </trkpt>
      <trkpt lat="47.405257087" lon="9.523027619">
        <ele>1068.1</ele>
      </trkpt>
      <trkpt lat="47.404402643" lon="9.523019151">
        <ele>1076.8</ele>
      </trkpt>
      <trkpt lat="47.403346452" lon="9.523856575">
        <ele>1061.5</ele>
      </trkpt>
      <trkpt lat="47.402708291" lon="9.523757505">
        <ele>1053.5</ele>
      </trkpt>
      <trkpt lat="47.402454333" lon="9.524218667">
        <ele>1042.8</ele>
      </trkpt>
      <trkpt lat="47.401879557" lon="9.524027488">
        <ele>1032.8</ele>
      </trkpt>
      <trkpt lat="47.401500953" lon="9.524209199">
        <ele>1019.5</ele>
      </trkpt>
      <trkpt lat="47.400931505" lon="9.522852281">
        <ele>1010.5</ele>
      </trkpt>
      <trkpt lat="47.401260189" lon="9.521782467">
        <ele>1024.2</ele>
      </trkpt>
      <trkpt lat="47.400756499" lon="9.519803590">
        <ele>1005.1</ele>
      </trkpt>
      <trkpt lat="47.400315966" lon="9.519759510">
        <ele>998.6</ele>
      </trkpt>
      <trkpt lat="47.398968373" lon="9.515427659">
        <ele>992.0</ele>
      </trkpt>
      <trkpt lat="47.398378246" lon="9.514546094">
        <ele>992.0</ele>
      </trkpt>
      <trkpt lat="47.397681059" lon="9.514288602">
        <ele>991.3</ele>
      </trkpt>
      <trkpt lat="47.395879951" lon="9.510426219">
        <ele>1017.0</ele>
      </trkpt>
      <trkpt lat="47.395792799" lon="9.510276015">
        <ele>1019.4</ele>
      </trkpt>
      <trkpt lat="47.395418674" lon="9.509444970">
        <ele>1035.9</ele>
      </trkpt>
      <trkpt lat="47.395359349" lon="9.510458659">
        <ele>1020.3</ele>
        <time>2010-06-05T10:11:23</time>
      </trkpt>
      <trkpt lat="47.395513000" lon="9.508324000">
        <ele>1005.7</ele>
        <time>2010-06-05T10:11:25</time>
      </trkpt>
      <trkpt lat="47.395792000" lon="9.507272000">
        <ele>1006.2</ele>
        <time>2010-06-05T10:11:38</time>
      </trkpt>
      <trkpt lat="47.395964000" lon="9.506049000">
        <ele>998.0</ele>
        <time>2010-06-05T10:11:55</time>
      </trkpt>
      <trkpt lat="47.396028000" lon="9.505599000">
        <ele>994.6</ele>
        <time>2010-06-05T10:12:05</time>
      </trkpt>
      <trkpt lat="47.396114000" lon="9.504998000">
        <ele>997.0</ele>
        <time>2010-06-05T10:12:14</time>
      </trkpt>
      <trkpt lat="47.396178000" lon="9.504547000">
        <ele>1005.7</ele>
        <time>2010-06-05T10:12:29</time>
      </trkpt>
      <trkpt lat="47.395706000" lon="9.501436000">
        <ele>1013.8</ele>
        <time>2010-06-05T10:17:54</time>
      </trkpt>
      <trkpt lat="47.395813000" lon="9.500771000">
        <ele>1011.9</ele>
        <time>2010-06-05T10:18:00</time>
      </trkpt>
      <trkpt lat="47.395856000" lon="9.500577000">
        <ele>1011.0</ele>
        <time>2010-06-05T10:18:02</time>
      </trkpt>
      <trkpt lat="47.395899000" lon="9.500341000">
        <ele>1010.0</ele>
        <time>2010-06-05T10:18:04</time>
      </trkpt>
      <trkpt lat="47.395921000" lon="9.499934000">
        <ele>1007.1</ele>
        <time>2010-06-05T10:18:07</time>
      </trkpt>
      <trkpt lat="47.396157000" lon="9.499140000">
        <ele>1003.8</ele>
        <time>2010-06-05T10:18:13</time>
      </trkpt>
      <trkpt lat="47.396436000" lon="9.498560000">
        <ele>1001.8</ele>
        <time>2010-06-05T10:18:18</time>
      </trkpt>
      <trkpt lat="47.396650000" lon="9.498088000">
        <ele>1000.9</ele>
        <time>2010-06-05T10:18:22</time>
      </trkpt>
      <trkpt lat="47.396972000" lon="9.497831000">
        <ele>999.9</ele>
        <time>2010-06-05T10:18:26</time>
      </trkpt>
      <trkpt lat="47.397122000" lon="9.497681000">
        <ele>999.0</ele>
        <time>2010-06-05T10:18:28</time>
      </trkpt>
      <trkpt lat="47.397122000" lon="9.496822000">
        <ele>995.6</ele>
        <time>2010-06-05T10:18:35</time>
      </trkpt>
      <trkpt lat="47.397037000" lon="9.496586000">
        <ele>995.1</ele>
        <time>2010-06-05T10:18:37</time>
      </trkpt>
      <trkpt lat="47.396929000" lon="9.496372000">
        <ele>994.6</ele>
        <time>2010-06-05T10:18:39</time>
      </trkpt>
      <trkpt lat="47.396586000" lon="9.496179000">
        <ele>993.7</ele>
        <time>2010-06-05T10:18:43</time>
      </trkpt>
      <trkpt lat="47.396071000" lon="9.496007000">
        <ele>994.1</ele>
        <time>2010-06-05T10:18:49</time>
      </trkpt>
      <trkpt lat="47.395942000" lon="9.495299000">
        <ele>993.7</ele>
        <time>2010-06-05T10:18:56</time>
      </trkpt>
      <trkpt lat="47.396071000" lon="9.495149000">
        <ele>992.7</ele>
        <time>2010-06-05T10:18:58</time>
      </trkpt>
      <trkpt lat="47.396307000" lon="9.494934000">
        <ele>991.7</ele>
        <time>2010-06-05T10:19:01</time>
      </trkpt>
      <trkpt lat="47.396908000" lon="9.493968000">
        <ele>986.5</ele>
        <time>2010-06-05T10:19:11</time>
      </trkpt>
      <trkpt lat="47.396929000" lon="9.493861000">
        <ele>986.0</ele>
        <time>2010-06-05T10:19:12</time>
      </trkpt>
      <trkpt lat="47.396972000" lon="9.493604000">
        <ele>985.5</ele>
        <time>2010-06-05T10:19:14</time>
      </trkpt>
      <trkpt lat="47.396972000" lon="9.493432000">
        <ele>984.5</ele>
        <time>2010-06-05T10:19:19</time>
      </trkpt>
      <trkpt lat="47.397058000" lon="9.493647000">
        <ele>984.0</ele>
        <time>2010-06-05T10:19:27</time>
      </trkpt>
      <trkpt lat="47.397079000" lon="9.493711000">
        <ele>985.0</ele>
        <time>2010-06-05T10:19:49</time>
      </trkpt>
      <trkpt lat="47.397079000" lon="9.493711000">
        <ele>984.5</ele>
        <time>2010-06-05T10:20:45</time>
      </trkpt>
      <trkpt lat="47.397079000" lon="9.493690000">
        <ele>984.5</ele>
        <time>2010-06-05T10:20:47</time>
      </trkpt>
      <trkpt lat="47.396994000" lon="9.493496000">
        <ele>985.0</ele>
        <time>2010-06-05T10:20:53</time>
      </trkpt>
      <trkpt lat="47.396929000" lon="9.493110000">
        <ele>985.5</ele>
        <time>2010-06-05T10:20:58</time>
      </trkpt>
      <trkpt lat="47.396736000" lon="9.491994000">
        <ele>985.5</ele>
        <time>2010-06-05T10:21:09</time>
      </trkpt>
      <trkpt lat="47.396779000" lon="9.491394000">
        <ele>983.6</ele>
        <time>2010-06-05T10:21:14</time>
      </trkpt>
      <trkpt lat="47.396972000" lon="9.490600000">
        <ele>982.6</ele>
        <time>2010-06-05T10:21:21</time>
      </trkpt>
      <trkpt lat="47.396951000" lon="9.489870000">
        <ele>981.2</ele>
        <time>2010-06-05T10:21:27</time>
      </trkpt>
      <trkpt lat="47.397187000" lon="9.489484000">
        <ele>981.2</ele>
        <time>2010-06-05T10:21:32</time>
      </trkpt>
      <trkpt lat="47.397251000" lon="9.489462000">
        <ele>981.2</ele>
        <time>2010-06-05T10:21:33</time>
      </trkpt>
      <trkpt lat="47.397380000" lon="9.489377000">
        <ele>980.7</ele>
        <time>2010-06-05T10:21:35</time>
      </trkpt>
      <trkpt lat="47.397637000" lon="9.489162000">
        <ele>980.2</ele>
        <time>2010-06-05T10:21:39</time>
      </trkpt>
      <trkpt lat="47.397938000" lon="9.489098000">
        <ele>980.2</ele>
        <time>2010-06-05T10:21:43</time>
      </trkpt>
      <trkpt lat="47.398345000" lon="9.489076000">
        <ele>978.3</ele>
        <time>2010-06-05T10:21:49</time>
      </trkpt>
      <trkpt lat="47.398496000" lon="9.489012000">
        <ele>978.3</ele>
        <time>2010-06-05T10:21:51</time>
      </trkpt>
      <trkpt lat="47.398732000" lon="9.488840000">
        <ele>978.8</ele>
        <time>2010-06-05T10:21:55</time>
      </trkpt>
      <trkpt lat="47.399762000" lon="9.487488000">
        <ele>979.2</ele>
        <time>2010-06-05T10:22:16</time>
      </trkpt>
      <trkpt lat="47.399976000" lon="9.487166000">
        <ele>979.7</ele>
        <time>2010-06-05T10:22:21</time>
      </trkpt>
      <trkpt lat="47.400062000" lon="9.486802000">
        <ele>978.8</ele>
        <time>2010-06-05T10:22:25</time>
      </trkpt>
      <trkpt lat="47.400148000" lon="9.486308000">
        <ele>975.9</ele>
        <time>2010-06-05T10:22:30</time>
      </trkpt>
      <trkpt lat="47.400427000" lon="9.485707000">
        <ele>974.9</ele>
        <time>2010-06-05T10:22:37</time>
      </trkpt>
      <trkpt lat="47.400448000" lon="9.484913000">
        <ele>974.0</ele>
        <time>2010-06-05T10:22:45</time>
      </trkpt>
      <trkpt lat="47.399740000" lon="9.482746000">
        <ele>968.7</ele>
        <time>2010-06-05T10:23:05</time>
      </trkpt>
      <trkpt lat="47.399590000" lon="9.482424000">
        <ele>967.7</ele>
        <time>2010-06-05T10:23:08</time>
      </trkpt>
      <trkpt lat="47.399805000" lon="9.481695000">
        <ele>965.8</ele>
        <time>2010-06-05T10:23:15</time>
      </trkpt>
      <trkpt lat="47.399955000" lon="9.481587000">
        <ele>966.3</ele>
        <time>2010-06-05T10:23:17</time>
      </trkpt>
      <trkpt lat="47.400148000" lon="9.481459000">
        <ele>966.3</ele>
        <time>2010-06-05T10:23:20</time>
      </trkpt>
      <trkpt lat="47.400362000" lon="9.481094000">
        <ele>966.3</ele>
        <time>2010-06-05T10:23:25</time>
      </trkpt>
      <trkpt lat="47.400985000" lon="9.479034000">
        <ele>964.3</ele>
        <time>2010-06-05T10:23:47</time>
      </trkpt>
      <trkpt lat="47.401006000" lon="9.478927000">
        <ele>963.9</ele>
        <time>2010-06-05T10:23:48</time>
      </trkpt>
      <trkpt lat="47.401843000" lon="9.477103000">
        <ele>952.8</ele>
        <time>2010-06-05T10:24:03</time>
      </trkpt>
      <trkpt lat="47.403259000" lon="9.475515000">
        <ele>941.3</ele>
        <time>2010-06-05T10:24:19</time>
      </trkpt>
      <trkpt lat="47.404289000" lon="9.473519000">
        <ele>930.2</ele>
        <time>2010-06-05T10:24:34</time>
      </trkpt>
      <trkpt lat="47.404611000" lon="9.472768000">
        <ele>924.0</ele>
        <time>2010-06-05T10:24:41</time>
      </trkpt>
      <trkpt lat="47.404568000" lon="9.472489000">
        <ele>923.0</ele>
        <time>2010-06-05T10:24:43</time>
      </trkpt>
      <trkpt lat="47.404461000" lon="9.471931000">
        <ele>920.1</ele>
        <time>2010-06-05T10:24:47</time>
      </trkpt>
      <trkpt lat="47.404225000" lon="9.471395000">
        <ele>917.2</ele>
        <time>2010-06-05T10:24:51</time>
      </trkpt>
      <trkpt lat="47.404160000" lon="9.471266000">
        <ele>916.8</ele>
        <time>2010-06-05T10:24:52</time>
      </trkpt>
      <trkpt lat="47.403753000" lon="9.469979000">
        <ele>911.5</ele>
        <time>2010-06-05T10:25:01</time>
      </trkpt>
      <trkpt lat="47.403388000" lon="9.469593000">
        <ele>908.1</ele>
        <time>2010-06-05T10:25:05</time>
      </trkpt>
      <trkpt lat="47.402916000" lon="9.469335000">
        <ele>904.3</ele>
        <time>2010-06-05T10:25:09</time>
      </trkpt>
      <trkpt lat="47.402701000" lon="9.469142000">
        <ele>902.3</ele>
        <time>2010-06-05T10:25:11</time>
      </trkpt>
      <trkpt lat="47.401929000" lon="9.469271000">
        <ele>896.6</ele>
        <time>2010-06-05T10:25:17</time>
      </trkpt>
      <trkpt lat="47.401564000" lon="9.469571000">
        <ele>893.7</ele>
        <time>2010-06-05T10:25:20</time>
      </trkpt>
      <trkpt lat="47.401178000" lon="9.469743000">
        <ele>890.8</ele>
        <time>2010-06-05T10:25:23</time>
      </trkpt>
      <trkpt lat="47.400963000" lon="9.469850000">
        <ele>888.9</ele>
        <time>2010-06-05T10:25:25</time>
      </trkpt>
      <trkpt lat="47.400620000" lon="9.469635000">
        <ele>885.5</ele>
        <time>2010-06-05T10:25:29</time>
      </trkpt>
      <trkpt lat="47.400556000" lon="9.469550000">
        <ele>884.5</ele>
        <time>2010-06-05T10:25:30</time>
      </trkpt>
      <trkpt lat="47.400684000" lon="9.468906000">
        <ele>881.7</ele>
        <time>2010-06-05T10:25:36</time>
      </trkpt>
      <trkpt lat="47.400727000" lon="9.468799000">
        <ele>881.7</ele>
        <time>2010-06-05T10:25:37</time>
      </trkpt>
      <trkpt lat="47.400920000" lon="9.468584000">
        <ele>881.2</ele>
        <time>2010-06-05T10:25:40</time>
      </trkpt>
      <trkpt lat="47.401092000" lon="9.467897000">
        <ele>879.3</ele>
        <time>2010-06-05T10:25:47</time>
      </trkpt>
      <trkpt lat="47.401092000" lon="9.467790000">
        <ele>878.8</ele>
        <time>2010-06-05T10:25:48</time>
      </trkpt>
      <trkpt lat="47.401114000" lon="9.467404000">
        <ele>877.3</ele>
        <time>2010-06-05T10:25:52</time>
      </trkpt>
      <trkpt lat="47.401199000" lon="9.467039000">
        <ele>874.9</ele>
        <time>2010-06-05T10:25:56</time>
      </trkpt>
      <trkpt lat="47.401564000" lon="9.466867000">
        <ele>874.5</ele>
        <time>2010-06-05T10:26:02</time>
      </trkpt>
      <trkpt lat="47.401693000" lon="9.466825000">
        <ele>874.5</ele>
        <time>2010-06-05T10:26:04</time>
      </trkpt>
      <trkpt lat="47.401822000" lon="9.466674000">
        <ele>874.5</ele>
        <time>2010-06-05T10:26:07</time>
      </trkpt>
      <trkpt lat="47.402143000" lon="9.466052000">
        <ele>872.5</ele>
        <time>2010-06-05T10:26:16</time>
      </trkpt>
      <trkpt lat="47.402358000" lon="9.465516000">
        <ele>871.1</ele>
        <time>2010-06-05T10:26:23</time>
      </trkpt>
      <trkpt lat="47.402616000" lon="9.465451000">
        <ele>869.7</ele>
        <time>2010-06-05T10:26:28</time>
      </trkpt>
      <trkpt lat="47.402701000" lon="9.465494000">
        <ele>869.2</ele>
        <time>2010-06-05T10:26:30</time>
      </trkpt>
      <trkpt lat="47.402894000" lon="9.465601000">
        <ele>869.2</ele>
        <time>2010-06-05T10:26:34</time>
      </trkpt>
      <trkpt lat="47.402959000" lon="9.465601000">
        <ele>869.7</ele>
        <time>2010-06-05T10:26:35</time>
      </trkpt>
      <trkpt lat="47.403109000" lon="9.465644000">
        <ele>871.6</ele>
        <time>2010-06-05T10:26:38</time>
      </trkpt>
      <trkpt lat="47.403538000" lon="9.465387000">
        <ele>883.1</ele>
        <time>2010-06-05T10:26:47</time>
      </trkpt>
      <trkpt lat="47.403667000" lon="9.465301000">
        <ele>884.5</ele>
        <time>2010-06-05T10:26:50</time>
      </trkpt>
      <trkpt lat="47.403924000" lon="9.465280000">
        <ele>886.0</ele>
        <time>2010-06-05T10:26:55</time>
      </trkpt>
      <trkpt lat="47.404203000" lon="9.465172000">
        <ele>886.0</ele>
        <time>2010-06-05T10:27:01</time>
      </trkpt>
      <trkpt lat="47.404375000" lon="9.465001000">
        <ele>885.0</ele>
        <time>2010-06-05T10:27:05</time>
      </trkpt>
      <trkpt lat="47.404482000" lon="9.464958000">
        <ele>885.0</ele>
        <time>2010-06-05T10:27:07</time>
      </trkpt>
      <trkpt lat="47.404697000" lon="9.464915000">
        <ele>884.1</ele>
        <time>2010-06-05T10:27:11</time>
      </trkpt>
      <trkpt lat="47.404783000" lon="9.464915000">
        <ele>883.6</ele>
        <time>2010-06-05T10:27:13</time>
      </trkpt>
      <trkpt lat="47.405019000" lon="9.464850000">
        <ele>882.6</ele>
        <time>2010-06-05T10:27:18</time>
      </trkpt>
      <trkpt lat="47.405190000" lon="9.464743000">
        <ele>882.2</ele>
        <time>2010-06-05T10:27:22</time>
      </trkpt>
      <trkpt lat="47.405276000" lon="9.464679000">
        <ele>881.7</ele>
        <time>2010-06-05T10:27:24</time>
      </trkpt>
      <trkpt lat="47.405555000" lon="9.464571000">
        <ele>882.2</ele>
        <time>2010-06-05T10:27:29</time>
      </trkpt>
      <trkpt lat="47.405684000" lon="9.464529000">
        <ele>885.0</ele>
        <time>2010-06-05T10:27:31</time>
      </trkpt>
      <trkpt lat="47.405834000" lon="9.464507000">
        <ele>887.0</ele>
        <time>2010-06-05T10:27:34</time>
      </trkpt>
      <trkpt lat="47.406049000" lon="9.464507000">
        <ele>888.9</ele>
        <time>2010-06-05T10:27:38</time>
      </trkpt>
      <trkpt lat="47.406242000" lon="9.464593000">
        <ele>891.3</ele>
        <time>2010-06-05T10:27:42</time>
      </trkpt>
      <trkpt lat="47.406456000" lon="9.464700000">
        <ele>892.7</ele>
        <time>2010-06-05T10:27:46</time>
      </trkpt>
      <trkpt lat="47.406714000" lon="9.464829000">
        <ele>894.6</ele>
        <time>2010-06-05T10:27:51</time>
      </trkpt>
      <trkpt lat="47.407229000" lon="9.464915000">
        <ele>900.4</ele>
        <time>2010-06-05T10:28:02</time>
      </trkpt>
      <trkpt lat="47.407934318" lon="9.464541860">
        <ele>889.8</ele>
      </trkpt>
      <trkpt lat="47.407818409" lon="9.461459791">
        <ele>893.6</ele>
      </trkpt>
      <trkpt lat="47.406191917" lon="9.459829007">
        <ele>904.3</ele>
      </trkpt>
      <trkpt lat="47.405320561" lon="9.455537471">
        <ele>906.7</ele>
      </trkpt>
      <trkpt lat="47.403868270" lon="9.455623302">
        <ele>917.1</ele>
      </trkpt>
      <trkpt lat="47.403113062" lon="9.454164179">
        <ele>926.2</ele>
      </trkpt>
      <trkpt lat="47.405204379" lon="9.451846750">
        <ele>914.2</ele>
      </trkpt>
      <trkpt lat="47.406656634" lon="9.451417596">
        <ele>906.6</ele>
      </trkpt>
      <trkpt lat="47.408399287" lon="9.445666937">
        <ele>906.3</ele>
      </trkpt>
      <trkpt lat="47.408562282" lon="9.445470789">
        <ele>906.9</ele>
      </trkpt>
      <trkpt lat="47.410096789" lon="9.446384742">
        <ele>902.1</ele>
      </trkpt>
      <trkpt lat="47.412722642" lon="9.446526216">
        <ele>897.3</ele>
      </trkpt>
      <trkpt lat="47.416624005" lon="9.444796778">
        <ele>899.0</ele>
      </trkpt>
      <trkpt lat="47.418119182" lon="9.446571900">
        <ele>894.6</ele>
      </trkpt>
      <trkpt lat="47.416964447" lon="9.445144193">
        <ele>897.9</ele>
      </trkpt>
      <trkpt lat="47.417548866" lon="9.445202132">
        <ele>898.6</ele>
      </trkpt>
      <trkpt lat="47.419733951" lon="9.447659015">
        <ele>897.2</ele>
      </trkpt>
      <trkpt lat="47.420616798" lon="9.449601389">
        <ele>889.2</ele>
      </trkpt>
      <trkpt lat="47.422771816" lon="9.450534229">
        <ele>852.6</ele>
      </trkpt>
      <trkpt lat="47.423584474" lon="9.449732717">
        <ele>845.9</ele>
      </trkpt>
      <trkpt lat="47.424583248" lon="9.449635206">
        <ele>816.7</ele>
      </trkpt>
      <trkpt lat="47.424715717" lon="9.445660245">
        <ele>811.3</ele>
      </trkpt>
      <trkpt lat="47.425783632" lon="9.439307397">
        <ele>748.1</ele>
      </trkpt>
      <trkpt lat="47.425018397" lon="9.437140667">
        <ele>757.9</ele>
      </trkpt>
      <trkpt lat="47.425254219" lon="9.436625725">
        <ele>748.1</ele>
      </trkpt>
      <trkpt lat="47.426058030" lon="9.438116826">
        <ele>738.0</ele>
      </trkpt>
      <trkpt lat="47.424719108" lon="9.435428467">
        <ele>753.9</ele>
      </trkpt>
      <trkpt lat="47.425507664" lon="9.431458829">
        <ele>719.9</ele>
      </trkpt>
      <trkpt lat="47.426354171" lon="9.431187421">
        <ele>702.6</ele>
      </trkpt>
      <trkpt lat="47.425668488" lon="9.429352779">
        <ele>716.8</ele>
      </trkpt>
      <trkpt lat="47.426290895" lon="9.426468469">
        <ele>726.9</ele>
      </trkpt>
      <trkpt lat="47.427147469" lon="9.425905465">
        <ele>710.1</ele>
      </trkpt>
      <trkpt lat="47.427426392" lon="9.423455671">
        <ele>731.7</ele>
      </trkpt>
      <trkpt lat="47.429005376" lon="9.422116373">
        <ele>727.8</ele>
      </trkpt>
      <trkpt lat="47.432081381" lon="9.424580012">
        <ele>704.8</ele>
      </trkpt>
      <trkpt lat="47.433623911" lon="9.423372896">
        <ele>706.1</ele>
      </trkpt>
      <trkpt lat="47.434057420" lon="9.417994451">
        <ele>703.6</ele>
      </trkpt>
      <trkpt lat="47.433794305" lon="9.416149793">
        <ele>696.5</ele>
      </trkpt>
      <trkpt lat="47.434216305" lon="9.413873090">
        <ele>683.9</ele>
      </trkpt>
      <trkpt lat="47.433447298" lon="9.412621004">
        <ele>688.1</ele>
      </trkpt>
      <trkpt lat="47.433091869" lon="9.411411950">
        <ele>690.4</ele>
      </trkpt>
      <trkpt lat="47.433531100" lon="9.409320955">
        <ele>687.7</ele>
      </trkpt>
      <trkpt lat="47.432579621" lon="9.406251522">
        <ele>693.2</ele>
      </trkpt>
      <trkpt lat="47.432970592" lon="9.404332779">
        <ele>686.7</ele>
      </trkpt>
      <trkpt lat="47.432771648" lon="9.405364873">
        <ele>690.3</ele>
      </trkpt>
      <trkpt lat="47.435219986" lon="9.402294993">
        <ele>661.2</ele>
      </trkpt>
      <trkpt lat="47.436902167" lon="9.404786834">
        <ele>658.0</ele>
      </trkpt>
      <trkpt lat="47.437870445" lon="9.403123898">
        <ele>657.0</ele>
      </trkpt>
      <trkpt lat="47.437610732" lon="9.402803746">
        <ele>655.1</ele>
      </trkpt>
      <trkpt lat="47.438333905" lon="9.401775224">
        <ele>652.8</ele>
      </trkpt>
      <trkpt lat="47.439362161" lon="9.398375936">
        <ele>639.9</ele>
      </trkpt>
      <trkpt lat="47.440259495" lon="9.396394089">
        <ele>646.7</ele>
      </trkpt>
      <trkpt lat="47.439975392" lon="9.395318098">
        <ele>654.0</ele>
      </trkpt>
      <trkpt lat="47.441783740" lon="9.395185828">
        <ele>661.5</ele>
      </trkpt>
      <trkpt lat="47.442057726" lon="9.393981406">
        <ele>671.1</ele>
      </trkpt>
      <trkpt lat="47.444020085" lon="9.396337005">
        <ele>644.4</ele>
      </trkpt>
      <trkpt lat="47.444982470" lon="9.396871407">
        <ele>647.7</ele>
      </trkpt>
      <trkpt lat="47.447145554" lon="9.398578382">
        <ele>648.1</ele>
      </trkpt>
      <trkpt lat="47.448777542" lon="9.397714495">
        <ele>637.6</ele>
      </trkpt>
      <trkpt lat="47.450664775" lon="9.398017734">
        <ele>626.3</ele>
      </trkpt>
      <trkpt lat="47.452678505" lon="9.400351314">
        <ele>602.1</ele>
      </trkpt>
      <trkpt lat="47.454790726" lon="9.399232514">
        <ele>606.3</ele>
      </trkpt>
      <trkpt lat="47.459089847" lon="9.394971215">
        <ele>614.0</ele>
      </trkpt>
      <trkpt lat="47.460170160" lon="9.394687542">
        <ele>609.9</ele>
      </trkpt>
      <trkpt lat="47.459126373" lon="9.394812342">
        <ele>614.0</ele>
      </trkpt>
      <trkpt lat="47.459259330" lon="9.393052701">
        <ele>616.1</ele>
      </trkpt>
      <trkpt lat="47.459882958" lon="9.390133375">
        <ele>614.5</ele>
      </trkpt>
      <trkpt lat="47.459932082" lon="9.388933537">
        <ele>613.3</ele>
      </trkpt>
      <trkpt lat="47.459927614" lon="9.389942784">
        <ele>614.5</ele>
      </trkpt>
      <trkpt lat="47.462384295" lon="9.388459391">
        <ele>600.7</ele>
      </trkpt>
      <trkpt lat="47.463603030" lon="9.385004114">
        <ele>600.0</ele>
      </trkpt>
      <trkpt lat="47.465741379" lon="9.383016897">
        <ele>600.0</ele>
      </trkpt>
      <trkpt lat="47.467011605" lon="9.382415983">
        <ele>600.0</ele>
      </trkpt>
      <trkpt lat="47.470836624" lon="9.378994815">
        <ele>600.0</ele>
      </trkpt>
      <trkpt lat="47.472866328" lon="9.379911500">
        <ele>600.0</ele>
      </trkpt>
      <trkpt lat="47.475716261" lon="9.380303534">
        <ele>599.2</ele>
      </trkpt>
      <trkpt lat="47.476736084" lon="9.379262834">
        <ele>599.3</ele>
      </trkpt>
      <trkpt lat="47.477903836" lon="9.379722328">
        <ele>596.9</ele>
      </trkpt>
      <trkpt lat="47.478412211" lon="9.378306415">
        <ele>597.9</ele>
      </trkpt>
      <trkpt lat="47.479735850" lon="9.377864837">
        <ele>596.5</ele>
      </trkpt>
      <trkpt lat="47.481469277" lon="9.378620288">
        <ele>587.9</ele>
      </trkpt>
      <trkpt lat="47.482742627" lon="9.377063802">
        <ele>585.7</ele>
      </trkpt>
      <trkpt lat="47.484024887" lon="9.378206650">
        <ele>570.7</ele>
      </trkpt>
      <trkpt lat="47.483558677" lon="9.377512909">
        <ele>577.1</ele>
      </trkpt>
      <trkpt lat="47.486721117" lon="9.373416745">
        <ele>565.7</ele>
      </trkpt>
      <trkpt lat="47.489984569" lon="9.371117656">
        <ele>564.3</ele>
      </trkpt>
      <trkpt lat="47.491414395" lon="9.368420584">
        <ele>569.6</ele>
      </trkpt>
      <trkpt lat="47.491322187" lon="9.366323219">
        <ele>576.1</ele>
      </trkpt>
      <trkpt lat="47.492236827" lon="9.364378810">
        <ele>573.0</ele>
      </trkpt>
      <trkpt lat="47.491991433" lon="9.362346717">
        <ele>572.0</ele>
      </trkpt>
      <trkpt lat="47.491686344" lon="9.362119017">
        <ele>573.7</ele>
      </trkpt>
      <trkpt lat="47.491688692" lon="9.361375887">
        <ele>569.9</ele>
      </trkpt>
      <trkpt lat="47.491541472" lon="9.359570098">
        <ele>564.0</ele>
      </trkpt>
      <trkpt lat="47.492120836" lon="9.357630145">
        <ele>560.0</ele>
      </trkpt>
      <trkpt lat="47.491956697" lon="9.357222776">
        <ele>560.0</ele>
      </trkpt>
      <trkpt lat="47.492586881" lon="9.356676911">
        <ele>560.0</ele>
      </trkpt>
      <trkpt lat="47.491613048" lon="9.357737837">
        <ele>560.0</ele>
      </trkpt>
      <trkpt lat="47.491938788" lon="9.357224700">
        <ele>560.0</ele>
      </trkpt>
      <trkpt lat="47.492674765" lon="9.353141412">
        <ele>558.3</ele>
      </trkpt>
      <trkpt lat="47.492674765" lon="9.351081475">
        <ele>556.4</ele>
      </trkpt>
      <trkpt lat="47.494052115" lon="9.348635299">
        <ele>550.5</ele>
      </trkpt>
      <trkpt lat="47.494313083" lon="9.347262007">
        <ele>549.0</ele>
      </trkpt>
      <trkpt lat="47.494095610" lon="9.345330816">
        <ele>549.6</ele>
      </trkpt>
      <trkpt lat="47.493726826" lon="9.342054455">
        <ele>552.2</ele>
      </trkpt>
      <trkpt lat="47.493974770" lon="9.343356629">
        <ele>550.5</ele>
      </trkpt>
      <trkpt lat="47.495104051" lon="9.341691817">
        <ele>544.9</ele>
      </trkpt>
      <trkpt lat="47.496081829" lon="9.340846160">
        <ele>542.7</ele>
      </trkpt>
      <trkpt lat="47.497980990" lon="9.338550188">
        <ele>540.6</ele>
      </trkpt>
      <trkpt lat="47.499517665" lon="9.335202790">
        <ele>540.8</ele>
      </trkpt>
      <trkpt lat="47.500677391" lon="9.330997084">
        <ele>528.0</ele>
      </trkpt>
      <trkpt lat="47.501373214" lon="9.331082914">
        <ele>528.0</ele>
      </trkpt>
      <trkpt lat="47.501779106" lon="9.326018901">
        <ele>514.8</ele>
      </trkpt>
      <trkpt lat="47.502358947" lon="9.324044795">
        <ele>511.4</ele>
      </trkpt>
      <trkpt lat="47.503808521" lon="9.325246425">
        <ele>518.3</ele>
      </trkpt>
      <trkpt lat="47.506533612" lon="9.324817271">
        <ele>515.2</ele>
      </trkpt>
      <trkpt lat="47.509374514" lon="9.322843164">
        <ele>510.3</ele>
      </trkpt>
      <trkpt lat="47.512621070" lon="9.322414010">
        <ele>496.0</ele>
      </trkpt>
      <trkpt lat="47.515113826" lon="9.321727365">
        <ele>496.0</ele>
      </trkpt>
      <trkpt lat="47.516099301" lon="9.320611565">
        <ele>496.0</ele>
      </trkpt>
      <trkpt lat="47.517490529" lon="9.320525734">
        <ele>496.0</ele>
      </trkpt>
      <trkpt lat="47.518774828" lon="9.321808709">
        <ele>496.0</ele>
      </trkpt>
      <trkpt lat="47.521258252" lon="9.321727364">
        <ele>496.0</ele>
      </trkpt>
      <trkpt lat="47.522320140" lon="9.314354988">
        <ele>496.0</ele>
      </trkpt>
      <trkpt lat="47.526799876" lon="9.313204784">
        <ele>496.0</ele>
      </trkpt>
      <trkpt lat="47.529324602" lon="9.310937309">
        <ele>492.3</ele>
      </trkpt>
      <trkpt lat="47.534356229" lon="9.308681093">
        <ele>473.7</ele>
      </trkpt>
      <trkpt lat="47.540498402" lon="9.289283347">
        <ele>479.7</ele>
      </trkpt>
      <trkpt lat="47.543627156" lon="9.285506795">
        <ele>464.0</ele>
      </trkpt>
      <trkpt lat="47.544554159" lon="9.285420965">
        <ele>464.0</ele>
      </trkpt>
      <trkpt lat="47.544959717" lon="9.278297014">
        <ele>464.0</ele>
      </trkpt>
      <trkpt lat="47.544380347" lon="9.274692123">
        <ele>470.5</ele>
      </trkpt>
      <trkpt lat="47.545597017" lon="9.263448297">
        <ele>465.2</ele>
      </trkpt>
      <trkpt lat="47.545481144" lon="9.257182653">
        <ele>470.9</ele>
      </trkpt>
      <trkpt lat="47.546292244" lon="9.256753500">
        <ele>466.4</ele>
      </trkpt>
      <trkpt lat="47.546755724" lon="9.254521900">
        <ele>473.6</ele>
      </trkpt>
      <trkpt lat="47.549536516" lon="9.251002840">
        <ele>443.7</ele>
      </trkpt>
      <trkpt lat="47.552548875" lon="9.250831179">
        <ele>432.0</ele>
      </trkpt>
      <trkpt lat="47.555503135" lon="9.252547793">
        <ele>432.0</ele>
      </trkpt>
      <trkpt lat="47.557240858" lon="9.251603655">
        <ele>432.0</ele>
      </trkpt>
      <trkpt lat="47.556951241" lon="9.250316194">
        <ele>432.0</ele>
      </trkpt>
      <trkpt lat="47.557298781" lon="9.246367981">
        <ele>433.4</ele>
      </trkpt>
      <trkpt lat="47.561584912" lon="9.243106412">
        <ele>448.0</ele>
      </trkpt>
      <trkpt lat="47.566449825" lon="9.237441584">
        <ele>464.0</ele>
      </trkpt>
      <trkpt lat="47.570561482" lon="9.234008355">
        <ele>480.0</ele>
      </trkpt>
      <trkpt lat="47.577278425" lon="9.222850359">
        <ele>496.0</ele>
      </trkpt>
      <trkpt lat="47.583589251" lon="9.219245468">
        <ele>524.8</ele>
      </trkpt>
      <trkpt lat="47.589088891" lon="9.215898069">
        <ele>544.0</ele>
      </trkpt>
      <trkpt lat="47.593603953" lon="9.215983899">
        <ele>544.0</ele>
      </trkpt>
      <trkpt lat="47.598755278" lon="9.210662394">
        <ele>544.0</ele>
      </trkpt>
      <trkpt lat="47.601186065" lon="9.210061579">
        <ele>544.0</ele>
      </trkpt>
      <trkpt lat="47.603211634" lon="9.209031610">
        <ele>544.0</ele>
      </trkpt>
      <trkpt lat="47.605237125" lon="9.205855872">
        <ele>544.0</ele>
      </trkpt>
      <trkpt lat="47.611428853" lon="9.197015306">
        <ele>542.7</ele>
      </trkpt>
      <trkpt lat="47.618429831" lon="9.193324585">
        <ele>512.0</ele>
      </trkpt>
      <trkpt lat="47.619181946" lon="9.193753738">
        <ele>512.0</ele>
      </trkpt>
      <trkpt lat="47.624157206" lon="9.193667908">
        <ele>496.0</ele>
      </trkpt>
      <trkpt lat="47.631330004" lon="9.197959444">
        <ele>464.0</ele>
      </trkpt>
      <trkpt lat="47.633932792" lon="9.201907658">
        <ele>436.8</ele>
      </trkpt>
      <trkpt lat="47.636535450" lon="9.202765965">
        <ele>429.7</ele>
      </trkpt>
      <trkpt lat="47.637692145" lon="9.204482580">
        <ele>416.0</ele>
      </trkpt>
      <trkpt lat="47.639774133" lon="9.204997565">
        <ele>412.0</ele>
      </trkpt>
      <trkpt lat="47.642732267" lon="9.208583576">
        <ele>398.0</ele>
      </trkpt>
      <trkpt lat="47.643431116" lon="9.205099453">
        <ele>399.2</ele>
      </trkpt>
      <trkpt lat="47.643624191" lon="9.202744539">
        <ele>399.9</ele>
      </trkpt>
      <trkpt lat="47.643929990" lon="9.202745726">
        <ele>399.7</ele>
      </trkpt>
      <trkpt lat="47.644481800" lon="9.200951139">
        <ele>399.0</ele>
      </trkpt>
      <trkpt lat="47.644212281" lon="9.200777085">
        <ele>400.0</ele>
      </trkpt>
      <trkpt lat="47.645327296" lon="9.195737142">
        <ele>389.5</ele>
      </trkpt>
      <trkpt lat="47.646001192" lon="9.196125642">
        <ele>384.8</ele>
      </trkpt>
      <trkpt lat="47.646318735" lon="9.194516377">
        <ele>384.1</ele>
      </trkpt>
      <trkpt lat="47.646405648" lon="9.190976351">
        <ele>391.4</ele>
      </trkpt>
      <trkpt lat="47.647262345" lon="9.189621884">
        <ele>391.1</ele>
      </trkpt>
      <trkpt lat="47.647112279" lon="9.187904380">
        <ele>401.5</ele>
      </trkpt>
      <trkpt lat="47.647185432" lon="9.187172605">
        <ele>403.6</ele>
      </trkpt>
      <trkpt lat="47.646945151" lon="9.185601197">
        <ele>402.5</ele>
      </trkpt>
      <trkpt lat="47.647116341" lon="9.185415469">
        <ele>402.5</ele>
      </trkpt>
      <trkpt lat="47.647601979" lon="9.185443813">
        <ele>404.0</ele>
      </trkpt>
      <trkpt lat="47.647990490" lon="9.184353773">
        <ele>402.4</ele>
      </trkpt>
      <trkpt lat="47.651061825" lon="9.179915347">
        <ele>401.2</ele>
      </trkpt>
      <trkpt lat="47.651460706" lon="9.180323846">
        <ele>399.5</ele>
      </trkpt>
      <trkpt lat="47.654546918" lon="9.177288424">
        <ele>398.2</ele>
      </trkpt>
      <trkpt lat="47.655073692" lon="9.177203013">
        <ele>398.0</ele>
      </trkpt>
      <trkpt lat="47.654589336" lon="9.176883989">
        <ele>398.6</ele>
      </trkpt>
      <trkpt lat="47.654570443" lon="9.176513040">
        <ele>398.3</ele>
      </trkpt>
      <trkpt lat="47.654912794" lon="9.176341609">
        <ele>398.0</ele>
      </trkpt>
      <trkpt lat="47.657540185" lon="9.176847895">
        <ele>398.0</ele>
      </trkpt>
      <trkpt lat="47.657640852" lon="9.176703421">
        <ele>397.7</ele>
      </trkpt>
      <trkpt lat="47.659163553" lon="9.176906606">
        <ele>398.0</ele>
      </trkpt>
    </trkseg>
  </trk>
</gpx>
